<?xml version="1.0" encoding="UTF-8" standalone="no" ?><gpx xmlns="http://www.topografix.com/GPX/1/1" xmlns:gpxx="http://www.garmin.com/xmlschemas/GpxExtensions/v3" xmlns:gpxtrkx="http://www.garmin.com/xmlschemas/TrackStatsExtension/v1" xmlns:wptx1="http://www.garmin.com/xmlschemas/WaypointExtension/v1" xmlns:gpxtpx="http://www.garmin.com/xmlschemas/TrackPointExtension/v1" creator="GPSMAP 64st" version="1.1" xmlns:xsi="http://www.w3.org/2001/XMLSchema-instance" xsi:schemaLocation="http://www.topografix.com/GPX/1/1 http://www.topografix.com/GPX/1/1/gpx.xsd http://www.garmin.com/xmlschemas/GpxExtensions/v3 http://www8.garmin.com/xmlschemas/GpxExtensionsv3.xsd http://www.garmin.com/xmlschemas/TrackStatsExtension/v1 http://www8.garmin.com/xmlschemas/TrackStatsExtension.xsd http://www.garmin.com/xmlschemas/WaypointExtension/v1 http://www8.garmin.com/xmlschemas/WaypointExtensionv1.xsd http://www.garmin.com/xmlschemas/TrackPointExtension/v1 http://www.garmin.com/xmlschemas/TrackPointExtensionv1.xsd"><metadata><link href="http://www.garmin.com"><text>Garmin International</text></link><time>2026-04-25T14:34:41Z</time></metadata><trk><name>Текущий трек: 25 APR 2026 12:08</name><extensions><gpxx:TrackExtension><gpxx:DisplayColor>Cyan</gpxx:DisplayColor></gpxx:TrackExtension><gpxtrkx:TrackStatsExtension><gpxtrkx:Distance>12089.000</gpxtrkx:Distance><gpxtrkx:TotalElapsedTime>19559</gpxtrkx:TotalElapsedTime><gpxtrkx:MovingTime>17333</gpxtrkx:MovingTime><gpxtrkx:StoppedTime>2054</gpxtrkx:StoppedTime><gpxtrkx:MovingSpeed>0.697</gpxtrkx:MovingSpeed><gpxtrkx:MaxSpeed>2.351</gpxtrkx:MaxSpeed><gpxtrkx:MaxElevation>78.989</gpxtrkx:MaxElevation><gpxtrkx:MinElevation>29.835</gpxtrkx:MinElevation><gpxtrkx:Ascent>60.000</gpxtrkx:Ascent><gpxtrkx:Descent>36.644</gpxtrkx:Descent><gpxtrkx:AvgAscentRate>0.015</gpxtrkx:AvgAscentRate><gpxtrkx:MaxAscentRate>0.038</gpxtrkx:MaxAscentRate><gpxtrkx:AvgDescentRate>0.015</gpxtrkx:AvgDescentRate><gpxtrkx:MaxDescentRate>-0.040</gpxtrkx:MaxDescentRate></gpxtrkx:TrackStatsExtension></extensions><trkseg><trkpt lat="59.0672610048" lon="30.0740152784"><ele>29.83</ele><time>2026-04-25T09:08:42Z</time></trkpt><trkpt lat="59.0672603343" lon="30.0740157813"><ele>29.83</ele><time>2026-04-25T09:08:43Z</time></trkpt><trkpt lat="59.0672601666" lon="30.0740165357"><ele>29.83</ele><time>2026-04-25T09:08:45Z</time></trkpt><trkpt lat="59.0672598314" lon="30.0740004424"><ele>60.33</ele><time>2026-04-25T09:08:47Z</time></trkpt><trkpt lat="59.0672634356" lon="30.0740057230"><ele>60.30</ele><time>2026-04-25T09:08:48Z</time></trkpt><trkpt lat="59.0672646929" lon="30.0740226544"><ele>60.04</ele><time>2026-04-25T09:09:03Z</time></trkpt><trkpt lat="59.0673171636" lon="30.0741033722"><ele>60.18</ele><time>2026-04-25T09:09:25Z</time></trkpt><trkpt lat="59.0673292335" lon="30.0741832517"><ele>60.30</ele><time>2026-04-25T09:09:29Z</time></trkpt><trkpt lat="59.0673568938" lon="30.0744669791"><ele>60.18</ele><time>2026-04-25T09:09:41Z</time></trkpt><trkpt lat="59.0673611686" lon="30.0745904446"><ele>60.21</ele><time>2026-04-25T09:09:46Z</time></trkpt><trkpt lat="59.0673946962" lon="30.0751558878"><ele>60.51</ele><time>2026-04-25T09:10:09Z</time></trkpt><trkpt lat="59.0674305707" lon="30.0755846221"><ele>61.07</ele><time>2026-04-25T09:10:26Z</time></trkpt><trkpt lat="59.0674671158" lon="30.0760920625"><ele>60.36</ele><time>2026-04-25T09:10:45Z</time></trkpt><trkpt lat="59.0674941055" lon="30.0764451083"><ele>61.05</ele><time>2026-04-25T09:10:58Z</time></trkpt><trkpt lat="59.0674967039" lon="30.0764737744"><ele>60.47</ele><time>2026-04-25T09:10:59Z</time></trkpt><trkpt lat="59.0674991347" lon="30.0765030272"><ele>60.73</ele><time>2026-04-25T09:11:00Z</time></trkpt><trkpt lat="59.0675403737" lon="30.0771528762"><ele>60.44</ele><time>2026-04-25T09:11:23Z</time></trkpt><trkpt lat="59.0675799362" lon="30.0775259547"><ele>60.29</ele><time>2026-04-25T09:11:37Z</time></trkpt><trkpt lat="59.0675852168" lon="30.0776059180"><ele>60.33</ele><time>2026-04-25T09:11:40Z</time></trkpt><trkpt lat="59.0675848816" lon="30.0776390266"><ele>60.49</ele><time>2026-04-25T09:11:41Z</time></trkpt><trkpt lat="59.0675862227" lon="30.0776717998"><ele>60.42</ele><time>2026-04-25T09:11:42Z</time></trkpt><trkpt lat="59.0675885696" lon="30.0777031481"><ele>60.40</ele><time>2026-04-25T09:11:43Z</time></trkpt><trkpt lat="59.0675902460" lon="30.0777344964"><ele>60.41</ele><time>2026-04-25T09:11:44Z</time></trkpt><trkpt lat="59.0675956104" lon="30.0777639169"><ele>60.43</ele><time>2026-04-25T09:11:45Z</time></trkpt><trkpt lat="59.0675956104" lon="30.0777921639"><ele>60.42</ele><time>2026-04-25T09:11:46Z</time></trkpt><trkpt lat="59.0676360112" lon="30.0783261750"><ele>60.70</ele><time>2026-04-25T09:12:05Z</time></trkpt><trkpt lat="59.0676886495" lon="30.0789720006"><ele>60.12</ele><time>2026-04-25T09:12:29Z</time></trkpt><trkpt lat="59.0677071735" lon="30.0791250542"><ele>60.01</ele><time>2026-04-25T09:12:35Z</time></trkpt><trkpt lat="59.0677139629" lon="30.0791513734"><ele>60.02</ele><time>2026-04-25T09:12:36Z</time></trkpt><trkpt lat="59.0677288827" lon="30.0791957974"><ele>60.25</ele><time>2026-04-25T09:12:38Z</time></trkpt><trkpt lat="59.0678251069" lon="30.0793167483"><ele>59.37</ele><time>2026-04-25T09:12:52Z</time></trkpt><trkpt lat="59.0678311419" lon="30.0793332607"><ele>58.84</ele><time>2026-04-25T09:12:53Z</time></trkpt><trkpt lat="59.0678542759" lon="30.0794014893"><ele>59.28</ele><time>2026-04-25T09:12:56Z</time></trkpt><trkpt lat="59.0678581316" lon="30.0794426445"><ele>59.44</ele><time>2026-04-25T09:12:58Z</time></trkpt><trkpt lat="59.0678517614" lon="30.0797575526"><ele>60.02</ele><time>2026-04-25T09:13:11Z</time></trkpt><trkpt lat="59.0678546950" lon="30.0797884818"><ele>60.30</ele><time>2026-04-25T09:13:12Z</time></trkpt><trkpt lat="59.0678591374" lon="30.0798173994"><ele>60.06</ele><time>2026-04-25T09:13:13Z</time></trkpt><trkpt lat="59.0678878035" lon="30.0801491551"><ele>60.18</ele><time>2026-04-25T09:13:27Z</time></trkpt><trkpt lat="59.0679329820" lon="30.0806343835"><ele>60.09</ele><time>2026-04-25T09:13:48Z</time></trkpt><trkpt lat="59.0679423697" lon="30.0809927098"><ele>60.28</ele><time>2026-04-25T09:14:02Z</time></trkpt><trkpt lat="59.0679653361" lon="30.0810632017"><ele>60.53</ele><time>2026-04-25T09:14:10Z</time></trkpt><trkpt lat="59.0679827705" lon="30.0810446776"><ele>60.12</ele><time>2026-04-25T09:14:36Z</time></trkpt><trkpt lat="59.0679282881" lon="30.0811922830"><ele>59.56</ele><time>2026-04-25T09:15:02Z</time></trkpt><trkpt lat="59.0679393522" lon="30.0812794548"><ele>59.98</ele><time>2026-04-25T09:15:06Z</time></trkpt><trkpt lat="59.0680040605" lon="30.0816380326"><ele>60.00</ele><time>2026-04-25T09:15:25Z</time></trkpt><trkpt lat="59.0680209920" lon="30.0818036590"><ele>59.48</ele><time>2026-04-25T09:15:31Z</time></trkpt><trkpt lat="59.0680296253" lon="30.0819561258"><ele>59.22</ele><time>2026-04-25T09:15:37Z</time></trkpt><trkpt lat="59.0680336487" lon="30.0819825288"><ele>59.13</ele><time>2026-04-25T09:15:38Z</time></trkpt><trkpt lat="59.0680386778" lon="30.0820275396"><ele>59.03</ele><time>2026-04-25T09:15:40Z</time></trkpt><trkpt lat="59.0680849459" lon="30.0823508296"><ele>59.31</ele><time>2026-04-25T09:15:53Z</time></trkpt><trkpt lat="59.0681076609" lon="30.0825675018"><ele>59.28</ele><time>2026-04-25T09:16:01Z</time></trkpt><trkpt lat="59.0681159589" lon="30.0828129239"><ele>58.93</ele><time>2026-04-25T09:16:11Z</time></trkpt><trkpt lat="59.0681141149" lon="30.0830001757"><ele>58.59</ele><time>2026-04-25T09:16:28Z</time></trkpt><trkpt lat="59.0681126062" lon="30.0830690749"><ele>59.53</ele><time>2026-04-25T09:16:54Z</time></trkpt><trkpt lat="59.0681068227" lon="30.0831891876"><ele>59.71</ele><time>2026-04-25T09:17:07Z</time></trkpt><trkpt lat="59.0681126900" lon="30.0832395628"><ele>59.24</ele><time>2026-04-25T09:17:09Z</time></trkpt><trkpt lat="59.0681164619" lon="30.0832609367"><ele>59.42</ele><time>2026-04-25T09:17:10Z</time></trkpt><trkpt lat="59.0681261849" lon="30.0834533852"><ele>59.49</ele><time>2026-04-25T09:17:20Z</time></trkpt><trkpt lat="59.0681293700" lon="30.0834800396"><ele>59.52</ele><time>2026-04-25T09:17:21Z</time></trkpt><trkpt lat="59.0681351535" lon="30.0835065264"><ele>59.36</ele><time>2026-04-25T09:17:22Z</time></trkpt><trkpt lat="59.0681411047" lon="30.0835312530"><ele>59.60</ele><time>2026-04-25T09:17:23Z</time></trkpt><trkpt lat="59.0681571141" lon="30.0838428084"><ele>59.52</ele><time>2026-04-25T09:17:36Z</time></trkpt><trkpt lat="59.0681723692" lon="30.0839011464"><ele>59.26</ele><time>2026-04-25T09:17:39Z</time></trkpt><trkpt lat="59.0681766439" lon="30.0839243643"><ele>59.35</ele><time>2026-04-25T09:17:40Z</time></trkpt><trkpt lat="59.0682379995" lon="30.0841242727"><ele>59.46</ele><time>2026-04-25T09:17:55Z</time></trkpt><trkpt lat="59.0682538413" lon="30.0843085907"><ele>59.29</ele><time>2026-04-25T09:18:08Z</time></trkpt><trkpt lat="59.0682507399" lon="30.0843365863"><ele>59.16</ele><time>2026-04-25T09:18:09Z</time></trkpt><trkpt lat="59.0682509914" lon="30.0843644980"><ele>59.39</ele><time>2026-04-25T09:18:10Z</time></trkpt><trkpt lat="59.0682411846" lon="30.0845585391"><ele>58.04</ele><time>2026-04-25T09:18:25Z</time></trkpt><trkpt lat="59.0682388376" lon="30.0845675915"><ele>59.34</ele><time>2026-04-25T09:18:29Z</time></trkpt><trkpt lat="59.0682361554" lon="30.0845913962"><ele>59.99</ele><time>2026-04-25T09:18:56Z</time></trkpt><trkpt lat="59.0682687610" lon="30.0847291946"><ele>60.50</ele><time>2026-04-25T09:19:12Z</time></trkpt><trkpt lat="59.0682690963" lon="30.0848757103"><ele>60.91</ele><time>2026-04-25T09:19:20Z</time></trkpt><trkpt lat="59.0682727844" lon="30.0849210564"><ele>59.90</ele><time>2026-04-25T09:19:22Z</time></trkpt><trkpt lat="59.0682930686" lon="30.0851295982"><ele>59.95</ele><time>2026-04-25T09:19:36Z</time></trkpt><trkpt lat="59.0682902187" lon="30.0851509720"><ele>60.61</ele><time>2026-04-25T09:19:37Z</time></trkpt><trkpt lat="59.0682899673" lon="30.0851725973"><ele>60.32</ele><time>2026-04-25T09:19:38Z</time></trkpt><trkpt lat="59.0682864469" lon="30.0851935521"><ele>60.36</ele><time>2026-04-25T09:19:39Z</time></trkpt><trkpt lat="59.0683093295" lon="30.0854277425"><ele>60.11</ele><time>2026-04-25T09:19:55Z</time></trkpt><trkpt lat="59.0683202259" lon="30.0856369548"><ele>60.39</ele><time>2026-04-25T09:20:11Z</time></trkpt><trkpt lat="59.0683488082" lon="30.0858900882"><ele>59.93</ele><time>2026-04-25T09:20:29Z</time></trkpt><trkpt lat="59.0683731996" lon="30.0860653538"><ele>60.37</ele><time>2026-04-25T09:20:45Z</time></trkpt><trkpt lat="59.0684047155" lon="30.0862099417"><ele>59.65</ele><time>2026-04-25T09:21:04Z</time></trkpt><trkpt lat="59.0684413444" lon="30.0864347443"><ele>59.87</ele><time>2026-04-25T09:21:21Z</time></trkpt><trkpt lat="59.0684418473" lon="30.0864757318"><ele>59.82</ele><time>2026-04-25T09:21:23Z</time></trkpt><trkpt lat="59.0684419312" lon="30.0865906477"><ele>59.93</ele><time>2026-04-25T09:21:29Z</time></trkpt><trkpt lat="59.0684857685" lon="30.0868435297"><ele>60.09</ele><time>2026-04-25T09:21:45Z</time></trkpt><trkpt lat="59.0684815776" lon="30.0868839305"><ele>60.69</ele><time>2026-04-25T09:22:02Z</time></trkpt><trkpt lat="59.0684707649" lon="30.0869036280"><ele>60.43</ele><time>2026-04-25T09:22:28Z</time></trkpt><trkpt lat="59.0684667416" lon="30.0868951622"><ele>59.87</ele><time>2026-04-25T09:23:00Z</time></trkpt><trkpt lat="59.0684732795" lon="30.0868882053"><ele>60.47</ele><time>2026-04-25T09:23:29Z</time></trkpt><trkpt lat="59.0684648976" lon="30.0869007781"><ele>61.12</ele><time>2026-04-25T09:23:57Z</time></trkpt><trkpt lat="59.0684835892" lon="30.0869121775"><ele>60.04</ele><time>2026-04-25T09:24:26Z</time></trkpt><trkpt lat="59.0684665740" lon="30.0868503191"><ele>59.91</ele><time>2026-04-25T09:24:53Z</time></trkpt><trkpt lat="59.0684858523" lon="30.0867370795"><ele>60.16</ele><time>2026-04-25T09:25:11Z</time></trkpt><trkpt lat="59.0684804879" lon="30.0866159610"><ele>60.25</ele><time>2026-04-25T09:25:35Z</time></trkpt><trkpt lat="59.0684112534" lon="30.0864029769"><ele>60.46</ele><time>2026-04-25T09:25:51Z</time></trkpt><trkpt lat="59.0683811624" lon="30.0862619095"><ele>60.56</ele><time>2026-04-25T09:26:03Z</time></trkpt><trkpt lat="59.0683680866" lon="30.0861156452"><ele>60.02</ele><time>2026-04-25T09:26:18Z</time></trkpt><trkpt lat="59.0683741216" lon="30.0859370269"><ele>59.57</ele><time>2026-04-25T09:26:31Z</time></trkpt><trkpt lat="59.0684170369" lon="30.0858647749"><ele>59.77</ele><time>2026-04-25T09:26:47Z</time></trkpt><trkpt lat="59.0685146861" lon="30.0858641881"><ele>60.43</ele><time>2026-04-25T09:27:07Z</time></trkpt><trkpt lat="59.0686345473" lon="30.0858347677"><ele>59.70</ele><time>2026-04-25T09:27:30Z</time></trkpt><trkpt lat="59.0686769597" lon="30.0858415570"><ele>60.07</ele><time>2026-04-25T09:27:56Z</time></trkpt><trkpt lat="59.0686475392" lon="30.0858240388"><ele>60.44</ele><time>2026-04-25T09:28:21Z</time></trkpt><trkpt lat="59.0686941426" lon="30.0858019106"><ele>61.20</ele><time>2026-04-25T09:28:53Z</time></trkpt><trkpt lat="59.0688300971" lon="30.0857498590"><ele>60.31</ele><time>2026-04-25T09:29:11Z</time></trkpt><trkpt lat="59.0689353738" lon="30.0856842287"><ele>60.48</ele><time>2026-04-25T09:29:33Z</time></trkpt><trkpt lat="59.0689751040" lon="30.0856827199"><ele>60.81</ele><time>2026-04-25T09:29:39Z</time></trkpt><trkpt lat="59.0691041853" lon="30.0856588315"><ele>61.58</ele><time>2026-04-25T09:29:58Z</time></trkpt><trkpt lat="59.0692318417" lon="30.0856014993"><ele>60.72</ele><time>2026-04-25T09:30:20Z</time></trkpt><trkpt lat="59.0693615936" lon="30.0855844002"><ele>60.73</ele><time>2026-04-25T09:30:39Z</time></trkpt><trkpt lat="59.0694621764" lon="30.0855695643"><ele>60.59</ele><time>2026-04-25T09:30:57Z</time></trkpt><trkpt lat="59.0695672017" lon="30.0855132379"><ele>59.99</ele><time>2026-04-25T09:31:16Z</time></trkpt><trkpt lat="59.0695857257" lon="30.0855285767"><ele>60.74</ele><time>2026-04-25T09:31:35Z</time></trkpt><trkpt lat="59.0696304012" lon="30.0855237152"><ele>60.65</ele><time>2026-04-25T09:32:01Z</time></trkpt><trkpt lat="59.0696409624" lon="30.0855218712"><ele>60.85</ele><time>2026-04-25T09:32:02Z</time></trkpt><trkpt lat="59.0696791001" lon="30.0855038501"><ele>60.01</ele><time>2026-04-25T09:32:25Z</time></trkpt><trkpt lat="59.0697358456" lon="30.0854761899"><ele>61.07</ele><time>2026-04-25T09:32:45Z</time></trkpt><trkpt lat="59.0698160604" lon="30.0854461826"><ele>60.61</ele><time>2026-04-25T09:33:06Z</time></trkpt><trkpt lat="59.0698845405" lon="30.0854338612"><ele>61.06</ele><time>2026-04-25T09:33:21Z</time></trkpt><trkpt lat="59.0699575469" lon="30.0853825640"><ele>61.16</ele><time>2026-04-25T09:33:44Z</time></trkpt><trkpt lat="59.0700250212" lon="30.0853818096"><ele>61.47</ele><time>2026-04-25T09:34:00Z</time></trkpt><trkpt lat="59.0700633265" lon="30.0853504613"><ele>61.13</ele><time>2026-04-25T09:34:25Z</time></trkpt><trkpt lat="59.0701068286" lon="30.0853310153"><ele>61.07</ele><time>2026-04-25T09:34:47Z</time></trkpt><trkpt lat="59.0701788291" lon="30.0853288360"><ele>60.92</ele><time>2026-04-25T09:35:06Z</time></trkpt><trkpt lat="59.0702481475" lon="30.0852730125"><ele>60.81</ele><time>2026-04-25T09:35:25Z</time></trkpt><trkpt lat="59.0703028813" lon="30.0852717552"><ele>61.46</ele><time>2026-04-25T09:35:45Z</time></trkpt><trkpt lat="59.0703751333" lon="30.0852154288"><ele>60.72</ele><time>2026-04-25T09:36:12Z</time></trkpt><trkpt lat="59.0704306215" lon="30.0852123275"><ele>61.45</ele><time>2026-04-25T09:36:33Z</time></trkpt><trkpt lat="59.0704503190" lon="30.0852340367"><ele>62.02</ele><time>2026-04-25T09:37:03Z</time></trkpt><trkpt lat="59.0704567730" lon="30.0852030236"><ele>61.50</ele><time>2026-04-25T09:37:28Z</time></trkpt><trkpt lat="59.0704487264" lon="30.0851444341"><ele>62.02</ele><time>2026-04-25T09:37:43Z</time></trkpt><trkpt lat="59.0705199726" lon="30.0851373095"><ele>62.42</ele><time>2026-04-25T09:38:01Z</time></trkpt><trkpt lat="59.0706090722" lon="30.0850834139"><ele>61.75</ele><time>2026-04-25T09:38:23Z</time></trkpt><trkpt lat="59.0706763789" lon="30.0850515626"><ele>62.22</ele><time>2026-04-25T09:38:42Z</time></trkpt><trkpt lat="59.0706911311" lon="30.0850270875"><ele>62.28</ele><time>2026-04-25T09:38:58Z</time></trkpt><trkpt lat="59.0707135946" lon="30.0850322843"><ele>62.16</ele><time>2026-04-25T09:39:26Z</time></trkpt><trkpt lat="59.0707643051" lon="30.0849921349"><ele>62.87</ele><time>2026-04-25T09:39:51Z</time></trkpt><trkpt lat="59.0708663967" lon="30.0849369820"><ele>61.64</ele><time>2026-04-25T09:40:11Z</time></trkpt><trkpt lat="59.0709083062" lon="30.0848921388"><ele>62.82</ele><time>2026-04-25T09:40:32Z</time></trkpt><trkpt lat="59.0709404089" lon="30.0848437753"><ele>61.84</ele><time>2026-04-25T09:40:52Z</time></trkpt><trkpt lat="59.0709924605" lon="30.0848539174"><ele>62.82</ele><time>2026-04-25T09:41:12Z</time></trkpt><trkpt lat="59.0710216295" lon="30.0848375726"><ele>61.99</ele><time>2026-04-25T09:41:33Z</time></trkpt><trkpt lat="59.0711119026" lon="30.0848119240"><ele>63.37</ele><time>2026-04-25T09:41:54Z</time></trkpt><trkpt lat="59.0711915307" lon="30.0848201383"><ele>63.37</ele><time>2026-04-25T09:42:13Z</time></trkpt><trkpt lat="59.0712719969" lon="30.0847886223"><ele>64.25</ele><time>2026-04-25T09:42:33Z</time></trkpt><trkpt lat="59.0713770222" lon="30.0847692601"><ele>63.72</ele><time>2026-04-25T09:42:57Z</time></trkpt><trkpt lat="59.0714611765" lon="30.0847156160"><ele>63.89</ele><time>2026-04-25T09:43:13Z</time></trkpt><trkpt lat="59.0715708956" lon="30.0847035460"><ele>64.12</ele><time>2026-04-25T09:43:26Z</time></trkpt><trkpt lat="59.0716096200" lon="30.0847228244"><ele>64.82</ele><time>2026-04-25T09:43:44Z</time></trkpt><trkpt lat="59.0716955345" lon="30.0847067311"><ele>65.23</ele><time>2026-04-25T09:44:15Z</time></trkpt><trkpt lat="59.0718267113" lon="30.0846313778"><ele>64.23</ele><time>2026-04-25T09:44:37Z</time></trkpt><trkpt lat="59.0718900785" lon="30.0845993590"><ele>65.83</ele><time>2026-04-25T09:44:55Z</time></trkpt><trkpt lat="59.0719548706" lon="30.0846006162"><ele>65.59</ele><time>2026-04-25T09:45:04Z</time></trkpt><trkpt lat="59.0720166452" lon="30.0845714472"><ele>66.12</ele><time>2026-04-25T09:45:11Z</time></trkpt><trkpt lat="59.0721199103" lon="30.0845498219"><ele>65.63</ele><time>2026-04-25T09:45:22Z</time></trkpt><trkpt lat="59.0722585469" lon="30.0846347306"><ele>66.03</ele><time>2026-04-25T09:45:45Z</time></trkpt><trkpt lat="59.0722811781" lon="30.0846255943"><ele>65.42</ele><time>2026-04-25T09:45:48Z</time></trkpt><trkpt lat="59.0724469721" lon="30.0845190603"><ele>65.33</ele><time>2026-04-25T09:46:05Z</time></trkpt><trkpt lat="59.0726188011" lon="30.0844536815"><ele>66.24</ele><time>2026-04-25T09:46:27Z</time></trkpt><trkpt lat="59.0725737903" lon="30.0844435394"><ele>66.20</ele><time>2026-04-25T09:46:55Z</time></trkpt><trkpt lat="59.0727590304" lon="30.0844168011"><ele>66.57</ele><time>2026-04-25T09:47:20Z</time></trkpt><trkpt lat="59.0729449410" lon="30.0843360834"><ele>66.61</ele><time>2026-04-25T09:47:39Z</time></trkpt><trkpt lat="59.0730762854" lon="30.0843527634"><ele>66.31</ele><time>2026-04-25T09:47:59Z</time></trkpt><trkpt lat="59.0732271597" lon="30.0842795894"><ele>67.19</ele><time>2026-04-25T09:48:19Z</time></trkpt><trkpt lat="59.0732834861" lon="30.0842445530"><ele>67.28</ele><time>2026-04-25T09:48:26Z</time></trkpt><trkpt lat="59.0732958075" lon="30.0842383504"><ele>67.67</ele><time>2026-04-25T09:48:27Z</time></trkpt><trkpt lat="59.0733068716" lon="30.0842355005"><ele>67.38</ele><time>2026-04-25T09:48:28Z</time></trkpt><trkpt lat="59.0734109748" lon="30.0842042360"><ele>67.18</ele><time>2026-04-25T09:48:47Z</time></trkpt><trkpt lat="59.0734132379" lon="30.0842046551"><ele>66.96</ele><time>2026-04-25T09:49:03Z</time></trkpt><trkpt lat="59.0734339412" lon="30.0842162222"><ele>66.82</ele><time>2026-04-25T09:49:06Z</time></trkpt><trkpt lat="59.0735188499" lon="30.0842288788"><ele>67.31</ele><time>2026-04-25T09:49:35Z</time></trkpt><trkpt lat="59.0736084525" lon="30.0841562077"><ele>67.72</ele><time>2026-04-25T09:49:52Z</time></trkpt><trkpt lat="59.0737524536" lon="30.0840899907"><ele>67.32</ele><time>2026-04-25T09:50:11Z</time></trkpt><trkpt lat="59.0739226062" lon="30.0840206724"><ele>66.74</ele><time>2026-04-25T09:50:32Z</time></trkpt><trkpt lat="59.0740305651" lon="30.0839775894"><ele>68.47</ele><time>2026-04-25T09:50:53Z</time></trkpt><trkpt lat="59.0740927588" lon="30.0839202572"><ele>68.03</ele><time>2026-04-25T09:51:13Z</time></trkpt><trkpt lat="59.0742079262" lon="30.0839031581"><ele>68.77</ele><time>2026-04-25T09:51:32Z</time></trkpt><trkpt lat="59.0743286256" lon="30.0838889927"><ele>68.92</ele><time>2026-04-25T09:51:48Z</time></trkpt><trkpt lat="59.0744015481" lon="30.0838409644"><ele>68.84</ele><time>2026-04-25T09:52:08Z</time></trkpt><trkpt lat="59.0744129475" lon="30.0838414673"><ele>68.86</ele><time>2026-04-25T09:52:26Z</time></trkpt><trkpt lat="59.0744882170" lon="30.0838481728"><ele>69.08</ele><time>2026-04-25T09:52:51Z</time></trkpt><trkpt lat="59.0746462997" lon="30.0837942772"><ele>69.28</ele><time>2026-04-25T09:53:10Z</time></trkpt><trkpt lat="59.0746582858" lon="30.0837911759"><ele>69.43</ele><time>2026-04-25T09:53:11Z</time></trkpt><trkpt lat="59.0746699367" lon="30.0837828778"><ele>68.76</ele><time>2026-04-25T09:53:12Z</time></trkpt><trkpt lat="59.0746817552" lon="30.0837736577"><ele>69.83</ele><time>2026-04-25T09:53:13Z</time></trkpt><trkpt lat="59.0748718567" lon="30.0837409683"><ele>69.01</ele><time>2026-04-25T09:53:32Z</time></trkpt><trkpt lat="59.0750980005" lon="30.0836380385"><ele>69.32</ele><time>2026-04-25T09:53:55Z</time></trkpt><trkpt lat="59.0752182808" lon="30.0835595839"><ele>69.50</ele><time>2026-04-25T09:54:14Z</time></trkpt><trkpt lat="59.0752585139" lon="30.0835784432"><ele>69.44</ele><time>2026-04-25T09:54:47Z</time></trkpt><trkpt lat="59.0752824862" lon="30.0835703965"><ele>69.62</ele><time>2026-04-25T09:54:52Z</time></trkpt><trkpt lat="59.0753354598" lon="30.0835030060"><ele>69.25</ele><time>2026-04-25T09:55:12Z</time></trkpt><trkpt lat="59.0754292533" lon="30.0834605936"><ele>70.15</ele><time>2026-04-25T09:55:34Z</time></trkpt><trkpt lat="59.0755844023" lon="30.0834222045"><ele>69.14</ele><time>2026-04-25T09:55:51Z</time></trkpt><trkpt lat="59.0756987315" lon="30.0833716616"><ele>69.87</ele><time>2026-04-25T09:56:05Z</time></trkpt><trkpt lat="59.0758769307" lon="30.0833110604"><ele>70.49</ele><time>2026-04-25T09:56:26Z</time></trkpt><trkpt lat="59.0760159865" lon="30.0832549017"><ele>70.28</ele><time>2026-04-25T09:56:44Z</time></trkpt><trkpt lat="59.0760552138" lon="30.0832903571"><ele>69.97</ele><time>2026-04-25T09:57:09Z</time></trkpt><trkpt lat="59.0761923417" lon="30.0832777843"><ele>70.50</ele><time>2026-04-25T09:57:34Z</time></trkpt><trkpt lat="59.0763574652" lon="30.0832490344"><ele>70.18</ele><time>2026-04-25T09:57:51Z</time></trkpt><trkpt lat="59.0765390173" lon="30.0832084659"><ele>70.97</ele><time>2026-04-25T09:58:07Z</time></trkpt><trkpt lat="59.0766885504" lon="30.0831218809"><ele>69.91</ele><time>2026-04-25T09:58:25Z</time></trkpt><trkpt lat="59.0768543445" lon="30.0830738526"><ele>70.67</ele><time>2026-04-25T09:58:41Z</time></trkpt><trkpt lat="59.0769320447" lon="30.0830051210"><ele>69.23</ele><time>2026-04-25T09:58:57Z</time></trkpt><trkpt lat="59.0770674124" lon="30.0829674024"><ele>70.23</ele><time>2026-04-25T09:59:16Z</time></trkpt><trkpt lat="59.0771064721" lon="30.0829281751"><ele>69.69</ele><time>2026-04-25T09:59:39Z</time></trkpt><trkpt lat="59.0771343000" lon="30.0829490460"><ele>70.62</ele><time>2026-04-25T10:00:06Z</time></trkpt><trkpt lat="59.0772501379" lon="30.0829048734"><ele>70.59</ele><time>2026-04-25T10:00:24Z</time></trkpt><trkpt lat="59.0774290077" lon="30.0828331243"><ele>71.09</ele><time>2026-04-25T10:00:40Z</time></trkpt><trkpt lat="59.0776238870" lon="30.0827735290"><ele>70.93</ele><time>2026-04-25T10:00:55Z</time></trkpt><trkpt lat="59.0778076183" lon="30.0827095751"><ele>70.47</ele><time>2026-04-25T10:01:11Z</time></trkpt><trkpt lat="59.0779497754" lon="30.0826942362"><ele>70.94</ele><time>2026-04-25T10:01:29Z</time></trkpt><trkpt lat="59.0780021623" lon="30.0826941524"><ele>71.36</ele><time>2026-04-25T10:01:57Z</time></trkpt><trkpt lat="59.0781273041" lon="30.0826858543"><ele>71.27</ele><time>2026-04-25T10:02:12Z</time></trkpt><trkpt lat="59.0782963671" lon="30.0826918893"><ele>71.22</ele><time>2026-04-25T10:02:33Z</time></trkpt><trkpt lat="59.0784126241" lon="30.0826431066"><ele>71.10</ele><time>2026-04-25T10:02:50Z</time></trkpt><trkpt lat="59.0784997959" lon="30.0825091638"><ele>70.57</ele><time>2026-04-25T10:03:10Z</time></trkpt><trkpt lat="59.0786188189" lon="30.0824144483"><ele>70.81</ele><time>2026-04-25T10:03:31Z</time></trkpt><trkpt lat="59.0787174739" lon="30.0822427031"><ele>70.91</ele><time>2026-04-25T10:03:50Z</time></trkpt><trkpt lat="59.0788426995" lon="30.0821427070"><ele>71.09</ele><time>2026-04-25T10:04:06Z</time></trkpt><trkpt lat="59.0789084136" lon="30.0820463989"><ele>70.80</ele><time>2026-04-25T10:04:21Z</time></trkpt><trkpt lat="59.0790527500" lon="30.0818930939"><ele>70.93</ele><time>2026-04-25T10:04:37Z</time></trkpt><trkpt lat="59.0791953262" lon="30.0816857256"><ele>71.86</ele><time>2026-04-25T10:04:55Z</time></trkpt><trkpt lat="59.0792218968" lon="30.0816346798"><ele>70.69</ele><time>2026-04-25T10:05:09Z</time></trkpt><trkpt lat="59.0792245790" lon="30.0816028286"><ele>71.11</ele><time>2026-04-25T10:05:37Z</time></trkpt><trkpt lat="59.0792482998" lon="30.0815895014"><ele>72.02</ele><time>2026-04-25T10:06:03Z</time></trkpt><trkpt lat="59.0793506429" lon="30.0814584922"><ele>71.38</ele><time>2026-04-25T10:06:24Z</time></trkpt><trkpt lat="59.0794203803" lon="30.0813282374"><ele>71.15</ele><time>2026-04-25T10:06:38Z</time></trkpt><trkpt lat="59.0794555005" lon="30.0813026726"><ele>71.11</ele><time>2026-04-25T10:06:41Z</time></trkpt><trkpt lat="59.0795853361" lon="30.0811524689"><ele>71.26</ele><time>2026-04-25T10:06:55Z</time></trkpt><trkpt lat="59.0796083864" lon="30.0811082125"><ele>71.28</ele><time>2026-04-25T10:06:58Z</time></trkpt><trkpt lat="59.0797554888" lon="30.0809482019"><ele>70.45</ele><time>2026-04-25T10:07:13Z</time></trkpt><trkpt lat="59.0799099673" lon="30.0807666499"><ele>71.63</ele><time>2026-04-25T10:07:32Z</time></trkpt><trkpt lat="59.0800239611" lon="30.0805581920"><ele>71.84</ele><time>2026-04-25T10:07:49Z</time></trkpt><trkpt lat="59.0799871646" lon="30.0805079844"><ele>71.50</ele><time>2026-04-25T10:08:13Z</time></trkpt><trkpt lat="59.0800312534" lon="30.0804647338"><ele>71.75</ele><time>2026-04-25T10:08:41Z</time></trkpt><trkpt lat="59.0801283158" lon="30.0803747959"><ele>71.74</ele><time>2026-04-25T10:09:02Z</time></trkpt><trkpt lat="59.0802818723" lon="30.0801830180"><ele>71.79</ele><time>2026-04-25T10:09:18Z</time></trkpt><trkpt lat="59.0803971235" lon="30.0800005440"><ele>71.37</ele><time>2026-04-25T10:09:37Z</time></trkpt><trkpt lat="59.0804799367" lon="30.0798640866"><ele>71.07</ele><time>2026-04-25T10:09:47Z</time></trkpt><trkpt lat="59.0806259494" lon="30.0796806905"><ele>71.30</ele><time>2026-04-25T10:10:05Z</time></trkpt><trkpt lat="59.0807093494" lon="30.0795982964"><ele>70.93</ele><time>2026-04-25T10:10:12Z</time></trkpt><trkpt lat="59.0808137879" lon="30.0793718174"><ele>71.20</ele><time>2026-04-25T10:10:32Z</time></trkpt><trkpt lat="59.0808332339" lon="30.0793583225"><ele>71.21</ele><time>2026-04-25T10:10:58Z</time></trkpt><trkpt lat="59.0809264407" lon="30.0792129803"><ele>70.88</ele><time>2026-04-25T10:11:22Z</time></trkpt><trkpt lat="59.0809841920" lon="30.0789426640"><ele>70.25</ele><time>2026-04-25T10:11:43Z</time></trkpt><trkpt lat="59.0810765605" lon="30.0788406562"><ele>69.56</ele><time>2026-04-25T10:12:05Z</time></trkpt><trkpt lat="59.0811826754" lon="30.0786340423"><ele>71.57</ele><time>2026-04-25T10:12:23Z</time></trkpt><trkpt lat="59.0812713560" lon="30.0785870198"><ele>70.75</ele><time>2026-04-25T10:12:39Z</time></trkpt><trkpt lat="59.0813735314" lon="30.0785800628"><ele>70.86</ele><time>2026-04-25T10:12:56Z</time></trkpt><trkpt lat="59.0815063007" lon="30.0784117542"><ele>70.73</ele><time>2026-04-25T10:13:11Z</time></trkpt><trkpt lat="59.0816249046" lon="30.0782380812"><ele>70.97</ele><time>2026-04-25T10:13:23Z</time></trkpt><trkpt lat="59.0817166027" lon="30.0781155378"><ele>71.31</ele><time>2026-04-25T10:13:39Z</time></trkpt><trkpt lat="59.0817207098" lon="30.0780483987"><ele>71.64</ele><time>2026-04-25T10:14:06Z</time></trkpt><trkpt lat="59.0818245616" lon="30.0778866280"><ele>71.27</ele><time>2026-04-25T10:14:28Z</time></trkpt><trkpt lat="59.0819192771" lon="30.0777962711"><ele>71.39</ele><time>2026-04-25T10:14:40Z</time></trkpt><trkpt lat="59.0821010806" lon="30.0775757432"><ele>72.11</ele><time>2026-04-25T10:14:59Z</time></trkpt><trkpt lat="59.0822930261" lon="30.0772668701"><ele>72.53</ele><time>2026-04-25T10:15:19Z</time></trkpt><trkpt lat="59.0824118815" lon="30.0771475956"><ele>72.41</ele><time>2026-04-25T10:15:33Z</time></trkpt><trkpt lat="59.0824698843" lon="30.0770371221"><ele>71.95</ele><time>2026-04-25T10:15:51Z</time></trkpt><trkpt lat="59.0825984627" lon="30.0768448412"><ele>71.95</ele><time>2026-04-25T10:16:10Z</time></trkpt><trkpt lat="59.0827275440" lon="30.0767000858"><ele>72.65</ele><time>2026-04-25T10:16:25Z</time></trkpt><trkpt lat="59.0826703794" lon="30.0767681468"><ele>71.85</ele><time>2026-04-25T10:16:49Z</time></trkpt><trkpt lat="59.0825287253" lon="30.0770058576"><ele>72.12</ele><time>2026-04-25T10:17:07Z</time></trkpt><trkpt lat="59.0824177489" lon="30.0771430694"><ele>71.89</ele><time>2026-04-25T10:17:26Z</time></trkpt><trkpt lat="59.0823723190" lon="30.0772006530"><ele>72.46</ele><time>2026-04-25T10:17:39Z</time></trkpt><trkpt lat="59.0823648591" lon="30.0771877449"><ele>72.51</ele><time>2026-04-25T10:18:03Z</time></trkpt><trkpt lat="59.0823538788" lon="30.0771920197"><ele>72.11</ele><time>2026-04-25T10:18:27Z</time></trkpt><trkpt lat="59.0823413059" lon="30.0771919359"><ele>72.52</ele><time>2026-04-25T10:18:55Z</time></trkpt><trkpt lat="59.0823718160" lon="30.0771408901"><ele>71.82</ele><time>2026-04-25T10:19:21Z</time></trkpt><trkpt lat="59.0824204311" lon="30.0771321729"><ele>72.33</ele><time>2026-04-25T10:19:50Z</time></trkpt><trkpt lat="59.0824278910" lon="30.0771294069"><ele>72.51</ele><time>2026-04-25T10:20:20Z</time></trkpt><trkpt lat="59.0824197605" lon="30.0771364477"><ele>72.79</ele><time>2026-04-25T10:20:35Z</time></trkpt><trkpt lat="59.0824403800" lon="30.0771556422"><ele>73.08</ele><time>2026-04-25T10:21:03Z</time></trkpt><trkpt lat="59.0824822057" lon="30.0771776866"><ele>72.65</ele><time>2026-04-25T10:21:39Z</time></trkpt><trkpt lat="59.0823825449" lon="30.0772813708"><ele>73.72</ele><time>2026-04-25T10:22:39Z</time></trkpt><trkpt lat="59.0824193414" lon="30.0771545526"><ele>73.76</ele><time>2026-04-25T10:23:11Z</time></trkpt><trkpt lat="59.0823962912" lon="30.0771748368"><ele>75.15</ele><time>2026-04-25T10:24:52Z</time></trkpt><trkpt lat="59.0824127197" lon="30.0772203505"><ele>75.51</ele><time>2026-04-25T10:25:28Z</time></trkpt><trkpt lat="59.0824122168" lon="30.0772299897"><ele>75.84</ele><time>2026-04-25T10:25:33Z</time></trkpt><trkpt lat="59.0824344289" lon="30.0772925187"><ele>75.69</ele><time>2026-04-25T10:26:00Z</time></trkpt><trkpt lat="59.0824611671" lon="30.0772366952"><ele>75.91</ele><time>2026-04-25T10:26:12Z</time></trkpt><trkpt lat="59.0824324172" lon="30.0771260541"><ele>76.35</ele><time>2026-04-25T10:26:23Z</time></trkpt><trkpt lat="59.0824157372" lon="30.0771579053"><ele>75.92</ele><time>2026-04-25T10:26:53Z</time></trkpt><trkpt lat="59.0824148152" lon="30.0771959592"><ele>75.83</ele><time>2026-04-25T10:27:16Z</time></trkpt><trkpt lat="59.0824431460" lon="30.0773723144"><ele>75.61</ele><time>2026-04-25T10:27:36Z</time></trkpt><trkpt lat="59.0824602451" lon="30.0775982067"><ele>75.54</ele><time>2026-04-25T10:27:57Z</time></trkpt><trkpt lat="59.0824656934" lon="30.0776506774"><ele>75.47</ele><time>2026-04-25T10:28:00Z</time></trkpt><trkpt lat="59.0825479198" lon="30.0777222589"><ele>75.49</ele><time>2026-04-25T10:28:19Z</time></trkpt><trkpt lat="59.0826173220" lon="30.0777584687"><ele>76.13</ele><time>2026-04-25T10:28:35Z</time></trkpt><trkpt lat="59.0826749895" lon="30.0778888073"><ele>75.84</ele><time>2026-04-25T10:28:51Z</time></trkpt><trkpt lat="59.0827349201" lon="30.0780890509"><ele>75.88</ele><time>2026-04-25T10:29:11Z</time></trkpt><trkpt lat="59.0828281268" lon="30.0783623848"><ele>76.94</ele><time>2026-04-25T10:29:33Z</time></trkpt><trkpt lat="59.0828824416" lon="30.0785569288"><ele>76.42</ele><time>2026-04-25T10:29:54Z</time></trkpt><trkpt lat="59.0828680247" lon="30.0786261633"><ele>76.76</ele><time>2026-04-25T10:30:23Z</time></trkpt><trkpt lat="59.0829091799" lon="30.0788166001"><ele>76.14</ele><time>2026-04-25T10:30:44Z</time></trkpt><trkpt lat="59.0830066614" lon="30.0791023392"><ele>76.23</ele><time>2026-04-25T10:31:06Z</time></trkpt><trkpt lat="59.0830779076" lon="30.0793576520"><ele>76.81</ele><time>2026-04-25T10:31:20Z</time></trkpt><trkpt lat="59.0832766425" lon="30.0796875637"><ele>77.43</ele><time>2026-04-25T10:31:43Z</time></trkpt><trkpt lat="59.0834050532" lon="30.0798662659"><ele>77.22</ele><time>2026-04-25T10:32:05Z</time></trkpt><trkpt lat="59.0834342223" lon="30.0799681898"><ele>76.90</ele><time>2026-04-25T10:32:27Z</time></trkpt><trkpt lat="59.0835243277" lon="30.0800736342"><ele>76.90</ele><time>2026-04-25T10:32:55Z</time></trkpt><trkpt lat="59.0835398342" lon="30.0803175475"><ele>77.11</ele><time>2026-04-25T10:33:14Z</time></trkpt><trkpt lat="59.0835525747" lon="30.0804802403"><ele>77.39</ele><time>2026-04-25T10:33:29Z</time></trkpt><trkpt lat="59.0834939852" lon="30.0807698350"><ele>77.20</ele><time>2026-04-25T10:33:50Z</time></trkpt><trkpt lat="59.0834643133" lon="30.0808953121"><ele>77.44</ele><time>2026-04-25T10:34:09Z</time></trkpt><trkpt lat="59.0834775567" lon="30.0809746049"><ele>77.20</ele><time>2026-04-25T10:34:29Z</time></trkpt><trkpt lat="59.0834902972" lon="30.0811474398"><ele>77.24</ele><time>2026-04-25T10:34:52Z</time></trkpt><trkpt lat="59.0835204720" lon="30.0813022535"><ele>77.61</ele><time>2026-04-25T10:35:13Z</time></trkpt><trkpt lat="59.0835435223" lon="30.0815149024"><ele>77.21</ele><time>2026-04-25T10:35:32Z</time></trkpt><trkpt lat="59.0836017765" lon="30.0815734919"><ele>76.76</ele><time>2026-04-25T10:35:50Z</time></trkpt><trkpt lat="59.0836936422" lon="30.0816108752"><ele>76.24</ele><time>2026-04-25T10:36:05Z</time></trkpt><trkpt lat="59.0838048700" lon="30.0816029124"><ele>76.47</ele><time>2026-04-25T10:36:25Z</time></trkpt><trkpt lat="59.0838629566" lon="30.0816630945"><ele>76.40</ele><time>2026-04-25T10:36:46Z</time></trkpt><trkpt lat="59.0839137509" lon="30.0817267131"><ele>76.33</ele><time>2026-04-25T10:37:05Z</time></trkpt><trkpt lat="59.0839937143" lon="30.0818086881"><ele>76.52</ele><time>2026-04-25T10:37:23Z</time></trkpt><trkpt lat="59.0840471908" lon="30.0819253642"><ele>75.85</ele><time>2026-04-25T10:37:38Z</time></trkpt><trkpt lat="59.0841124021" lon="30.0818916690"><ele>75.89</ele><time>2026-04-25T10:38:05Z</time></trkpt><trkpt lat="59.0841051936" lon="30.0819738954"><ele>75.38</ele><time>2026-04-25T10:38:34Z</time></trkpt><trkpt lat="59.0841652919" lon="30.0820344966"><ele>75.20</ele><time>2026-04-25T10:38:53Z</time></trkpt><trkpt lat="59.0841906052" lon="30.0822152104"><ele>75.70</ele><time>2026-04-25T10:39:11Z</time></trkpt><trkpt lat="59.0842103027" lon="30.0823941641"><ele>75.28</ele><time>2026-04-25T10:39:29Z</time></trkpt><trkpt lat="59.0842141584" lon="30.0824358221"><ele>75.57</ele><time>2026-04-25T10:39:33Z</time></trkpt><trkpt lat="59.0841994900" lon="30.0827104133"><ele>75.05</ele><time>2026-04-25T10:39:52Z</time></trkpt><trkpt lat="59.0842512902" lon="30.0828907080"><ele>76.21</ele><time>2026-04-25T10:40:09Z</time></trkpt><trkpt lat="59.0842546429" lon="30.0830751937"><ele>75.91</ele><time>2026-04-25T10:40:28Z</time></trkpt><trkpt lat="59.0842885058" lon="30.0831878465"><ele>75.69</ele><time>2026-04-25T10:40:47Z</time></trkpt><trkpt lat="59.0843018331" lon="30.0833620224"><ele>75.25</ele><time>2026-04-25T10:41:01Z</time></trkpt><trkpt lat="59.0843493585" lon="30.0835478492"><ele>75.11</ele><time>2026-04-25T10:41:24Z</time></trkpt><trkpt lat="59.0843872447" lon="30.0835034251"><ele>74.91</ele><time>2026-04-25T10:41:53Z</time></trkpt><trkpt lat="59.0844267234" lon="30.0835093763"><ele>74.94</ele><time>2026-04-25T10:42:15Z</time></trkpt><trkpt lat="59.0844731592" lon="30.0836135633"><ele>74.41</ele><time>2026-04-25T10:42:47Z</time></trkpt><trkpt lat="59.0844222810" lon="30.0837143138"><ele>74.17</ele><time>2026-04-25T10:43:05Z</time></trkpt><trkpt lat="59.0843517054" lon="30.0839215983"><ele>74.31</ele><time>2026-04-25T10:43:24Z</time></trkpt><trkpt lat="59.0842606779" lon="30.0842302199"><ele>75.01</ele><time>2026-04-25T10:43:45Z</time></trkpt><trkpt lat="59.0841874201" lon="30.0844296254"><ele>74.93</ele><time>2026-04-25T10:44:04Z</time></trkpt><trkpt lat="59.0841396432" lon="30.0845580362"><ele>74.13</ele><time>2026-04-25T10:44:21Z</time></trkpt><trkpt lat="59.0840643737" lon="30.0846012030"><ele>74.22</ele><time>2026-04-25T10:44:40Z</time></trkpt><trkpt lat="59.0839417465" lon="30.0847471319"><ele>74.15</ele><time>2026-04-25T10:45:00Z</time></trkpt><trkpt lat="59.0838442650" lon="30.0849302765"><ele>73.99</ele><time>2026-04-25T10:45:18Z</time></trkpt><trkpt lat="59.0837429278" lon="30.0851014350"><ele>74.47</ele><time>2026-04-25T10:45:37Z</time></trkpt><trkpt lat="59.0836890321" lon="30.0852599367"><ele>74.39</ele><time>2026-04-25T10:45:56Z</time></trkpt><trkpt lat="59.0836670715" lon="30.0853640400"><ele>73.78</ele><time>2026-04-25T10:46:02Z</time></trkpt><trkpt lat="59.0836104099" lon="30.0856107194"><ele>74.23</ele><time>2026-04-25T10:46:22Z</time></trkpt><trkpt lat="59.0836477093" lon="30.0857460871"><ele>74.28</ele><time>2026-04-25T10:46:40Z</time></trkpt><trkpt lat="59.0836619586" lon="30.0857004058"><ele>74.38</ele><time>2026-04-25T10:47:07Z</time></trkpt><trkpt lat="59.0836601146" lon="30.0857417285"><ele>74.61</ele><time>2026-04-25T10:47:34Z</time></trkpt><trkpt lat="59.0836662333" lon="30.0857460033"><ele>74.74</ele><time>2026-04-25T10:48:07Z</time></trkpt><trkpt lat="59.0835828334" lon="30.0856734999"><ele>74.47</ele><time>2026-04-25T10:48:26Z</time></trkpt><trkpt lat="59.0835077316" lon="30.0855522975"><ele>74.80</ele><time>2026-04-25T10:48:44Z</time></trkpt><trkpt lat="59.0834954940" lon="30.0855516270"><ele>74.64</ele><time>2026-04-25T10:48:48Z</time></trkpt><trkpt lat="59.0833840985" lon="30.0855628587"><ele>74.57</ele><time>2026-04-25T10:49:07Z</time></trkpt><trkpt lat="59.0832877904" lon="30.0854326878"><ele>74.18</ele><time>2026-04-25T10:49:28Z</time></trkpt><trkpt lat="59.0831701085" lon="30.0853668060"><ele>73.39</ele><time>2026-04-25T10:49:51Z</time></trkpt><trkpt lat="59.0830709506" lon="30.0850892812"><ele>72.80</ele><time>2026-04-25T10:50:11Z</time></trkpt><trkpt lat="59.0830393508" lon="30.0848172046"><ele>74.75</ele><time>2026-04-25T10:50:29Z</time></trkpt><trkpt lat="59.0830095112" lon="30.0845451280"><ele>73.98</ele><time>2026-04-25T10:50:46Z</time></trkpt><trkpt lat="59.0829734690" lon="30.0842677709"><ele>74.95</ele><time>2026-04-25T10:51:04Z</time></trkpt><trkpt lat="59.0828824416" lon="30.0839799363"><ele>73.99</ele><time>2026-04-25T10:51:26Z</time></trkpt><trkpt lat="59.0828399453" lon="30.0837985519"><ele>73.75</ele><time>2026-04-25T10:51:43Z</time></trkpt><trkpt lat="59.0828063339" lon="30.0837192591"><ele>73.50</ele><time>2026-04-25T10:52:06Z</time></trkpt><trkpt lat="59.0827574674" lon="30.0836705603"><ele>73.02</ele><time>2026-04-25T10:52:31Z</time></trkpt><trkpt lat="59.0827170666" lon="30.0835214462"><ele>72.89</ele><time>2026-04-25T10:52:49Z</time></trkpt><trkpt lat="59.0827450622" lon="30.0832327735"><ele>73.92</ele><time>2026-04-25T10:53:08Z</time></trkpt><trkpt lat="59.0826279670" lon="30.0829087291"><ele>74.13</ele><time>2026-04-25T10:53:33Z</time></trkpt><trkpt lat="59.0825677849" lon="30.0827666558"><ele>73.47</ele><time>2026-04-25T10:53:57Z</time></trkpt><trkpt lat="59.0824501868" lon="30.0826346409"><ele>73.70</ele><time>2026-04-25T10:54:18Z</time></trkpt><trkpt lat="59.0823576506" lon="30.0824843533"><ele>73.23</ele><time>2026-04-25T10:54:41Z</time></trkpt><trkpt lat="59.0823128074" lon="30.0822868757"><ele>72.77</ele><time>2026-04-25T10:55:00Z</time></trkpt><trkpt lat="59.0823070239" lon="30.0819771644"><ele>72.83</ele><time>2026-04-25T10:55:22Z</time></trkpt><trkpt lat="59.0823015757" lon="30.0819406193"><ele>73.02</ele><time>2026-04-25T10:55:25Z</time></trkpt><trkpt lat="59.0823069401" lon="30.0817179959"><ele>72.99</ele><time>2026-04-25T10:55:43Z</time></trkpt><trkpt lat="59.0823075268" lon="30.0815444067"><ele>73.19</ele><time>2026-04-25T10:56:08Z</time></trkpt><trkpt lat="59.0823352709" lon="30.0815701392"><ele>73.99</ele><time>2026-04-25T10:56:36Z</time></trkpt><trkpt lat="59.0823634341" lon="30.0815759227"><ele>72.66</ele><time>2026-04-25T10:57:09Z</time></trkpt><trkpt lat="59.0823376179" lon="30.0817195047"><ele>72.44</ele><time>2026-04-25T10:57:36Z</time></trkpt><trkpt lat="59.0822899248" lon="30.0819098577"><ele>72.79</ele><time>2026-04-25T10:57:54Z</time></trkpt><trkpt lat="59.0822263900" lon="30.0820329878"><ele>72.35</ele><time>2026-04-25T10:58:07Z</time></trkpt><trkpt lat="59.0821499471" lon="30.0820159726"><ele>72.69</ele><time>2026-04-25T10:58:24Z</time></trkpt><trkpt lat="59.0820253920" lon="30.0819362607"><ele>72.25</ele><time>2026-04-25T10:58:42Z</time></trkpt><trkpt lat="59.0819022618" lon="30.0818939321"><ele>72.28</ele><time>2026-04-25T10:58:59Z</time></trkpt><trkpt lat="59.0818810556" lon="30.0818941835"><ele>72.80</ele><time>2026-04-25T10:59:04Z</time></trkpt><trkpt lat="59.0818230528" lon="30.0818630029"><ele>72.49</ele><time>2026-04-25T10:59:12Z</time></trkpt><trkpt lat="59.0817074664" lon="30.0818907470"><ele>72.53</ele><time>2026-04-25T10:59:35Z</time></trkpt><trkpt lat="59.0816179477" lon="30.0819828641"><ele>72.69</ele><time>2026-04-25T10:59:57Z</time></trkpt><trkpt lat="59.0816159360" lon="30.0819922518"><ele>72.80</ele><time>2026-04-25T10:59:59Z</time></trkpt><trkpt lat="59.0815811511" lon="30.0820418727"><ele>72.90</ele><time>2026-04-25T11:00:02Z</time></trkpt><trkpt lat="59.0814959072" lon="30.0820926670"><ele>72.73</ele><time>2026-04-25T11:00:35Z</time></trkpt><trkpt lat="59.0815177839" lon="30.0820145477"><ele>72.42</ele><time>2026-04-25T11:01:02Z</time></trkpt><trkpt lat="59.0815404989" lon="30.0819962751"><ele>72.97</ele><time>2026-04-25T11:01:22Z</time></trkpt><trkpt lat="59.0815218911" lon="30.0820409507"><ele>72.88</ele><time>2026-04-25T11:01:27Z</time></trkpt><trkpt lat="59.0815070551" lon="30.0820743944"><ele>72.92</ele><time>2026-04-25T11:01:29Z</time></trkpt><trkpt lat="59.0814718511" lon="30.0823187269"><ele>72.14</ele><time>2026-04-25T11:01:51Z</time></trkpt><trkpt lat="59.0814151894" lon="30.0825385842"><ele>72.05</ele><time>2026-04-25T11:02:13Z</time></trkpt><trkpt lat="59.0813702624" lon="30.0826443639"><ele>72.21</ele><time>2026-04-25T11:02:24Z</time></trkpt><trkpt lat="59.0813007765" lon="30.0827722717"><ele>72.32</ele><time>2026-04-25T11:02:38Z</time></trkpt><trkpt lat="59.0811984334" lon="30.0829630438"><ele>72.42</ele><time>2026-04-25T11:03:01Z</time></trkpt><trkpt lat="59.0811627265" lon="30.0829893630"><ele>72.82</ele><time>2026-04-25T11:03:09Z</time></trkpt><trkpt lat="59.0810101759" lon="30.0831080507"><ele>72.68</ele><time>2026-04-25T11:03:32Z</time></trkpt><trkpt lat="59.0809202380" lon="30.0832081307"><ele>72.47</ele><time>2026-04-25T11:03:53Z</time></trkpt><trkpt lat="59.0808935836" lon="30.0832204521"><ele>71.96</ele><time>2026-04-25T11:04:18Z</time></trkpt><trkpt lat="59.0808813460" lon="30.0832686480"><ele>72.38</ele><time>2026-04-25T11:04:49Z</time></trkpt><trkpt lat="59.0809442103" lon="30.0833489466"><ele>72.18</ele><time>2026-04-25T11:05:12Z</time></trkpt><trkpt lat="59.0810209885" lon="30.0835953746"><ele>72.00</ele><time>2026-04-25T11:05:32Z</time></trkpt><trkpt lat="59.0811203141" lon="30.0837936066"><ele>71.79</ele><time>2026-04-25T11:05:50Z</time></trkpt><trkpt lat="59.0811696835" lon="30.0840001367"><ele>71.79</ele><time>2026-04-25T11:06:05Z</time></trkpt><trkpt lat="59.0812338050" lon="30.0842416193"><ele>71.57</ele><time>2026-04-25T11:06:28Z</time></trkpt><trkpt lat="59.0812937357" lon="30.0843982771"><ele>72.01</ele><time>2026-04-25T11:06:46Z</time></trkpt><trkpt lat="59.0813161992" lon="30.0845676754"><ele>71.17</ele><time>2026-04-25T11:07:08Z</time></trkpt><trkpt lat="59.0813494753" lon="30.0846877042"><ele>71.34</ele><time>2026-04-25T11:07:30Z</time></trkpt><trkpt lat="59.0813888703" lon="30.0847297814"><ele>70.61</ele><time>2026-04-25T11:07:57Z</time></trkpt><trkpt lat="59.0814748686" lon="30.0849286839"><ele>71.25</ele><time>2026-04-25T11:08:15Z</time></trkpt><trkpt lat="59.0815305244" lon="30.0851580966"><ele>70.30</ele><time>2026-04-25T11:08:36Z</time></trkpt><trkpt lat="59.0816384833" lon="30.0854167622"><ele>70.68</ele><time>2026-04-25T11:08:56Z</time></trkpt><trkpt lat="59.0816890262" lon="30.0857574027"><ele>71.02</ele><time>2026-04-25T11:09:17Z</time></trkpt><trkpt lat="59.0817903634" lon="30.0859573111"><ele>70.37</ele><time>2026-04-25T11:09:38Z</time></trkpt><trkpt lat="59.0818773676" lon="30.0859978795"><ele>70.30</ele><time>2026-04-25T11:09:59Z</time></trkpt><trkpt lat="59.0819288325" lon="30.0860808603"><ele>70.20</ele><time>2026-04-25T11:10:25Z</time></trkpt><trkpt lat="59.0819148347" lon="30.0863892306"><ele>70.58</ele><time>2026-04-25T11:10:45Z</time></trkpt><trkpt lat="59.0818773676" lon="30.0865777396"><ele>69.99</ele><time>2026-04-25T11:11:06Z</time></trkpt><trkpt lat="59.0819585882" lon="30.0868467987"><ele>70.20</ele><time>2026-04-25T11:11:24Z</time></trkpt><trkpt lat="59.0820449218" lon="30.0870949030"><ele>69.72</ele><time>2026-04-25T11:11:41Z</time></trkpt><trkpt lat="59.0821385477" lon="30.0872537401"><ele>69.80</ele><time>2026-04-25T11:11:59Z</time></trkpt><trkpt lat="59.0821809601" lon="30.0874677300"><ele>69.25</ele><time>2026-04-25T11:12:16Z</time></trkpt><trkpt lat="59.0822438244" lon="30.0875508785"><ele>69.28</ele><time>2026-04-25T11:12:38Z</time></trkpt><trkpt lat="59.0822654497" lon="30.0875143334"><ele>68.73</ele><time>2026-04-25T11:13:03Z</time></trkpt><trkpt lat="59.0822829679" lon="30.0874887686"><ele>68.55</ele><time>2026-04-25T11:13:32Z</time></trkpt><trkpt lat="59.0823028330" lon="30.0877185166"><ele>68.22</ele><time>2026-04-25T11:13:53Z</time></trkpt><trkpt lat="59.0823070239" lon="30.0879384577"><ele>68.73</ele><time>2026-04-25T11:14:11Z</time></trkpt><trkpt lat="59.0822149068" lon="30.0881126337"><ele>67.92</ele><time>2026-04-25T11:14:29Z</time></trkpt><trkpt lat="59.0821654536" lon="30.0881857239"><ele>68.59</ele><time>2026-04-25T11:14:53Z</time></trkpt><trkpt lat="59.0821336862" lon="30.0883315690"><ele>68.33</ele><time>2026-04-25T11:15:13Z</time></trkpt><trkpt lat="59.0820429940" lon="30.0886282884"><ele>68.51</ele><time>2026-04-25T11:15:36Z</time></trkpt><trkpt lat="59.0820437483" lon="30.0887057371"><ele>68.05</ele><time>2026-04-25T11:16:01Z</time></trkpt><trkpt lat="59.0820118971" lon="30.0887653325"><ele>67.75</ele><time>2026-04-25T11:16:26Z</time></trkpt><trkpt lat="59.0818979871" lon="30.0890561845"><ele>67.99</ele><time>2026-04-25T11:16:50Z</time></trkpt><trkpt lat="59.0818393137" lon="30.0892612897"><ele>67.93</ele><time>2026-04-25T11:17:11Z</time></trkpt><trkpt lat="59.0816728491" lon="30.0894674845"><ele>68.04</ele><time>2026-04-25T11:17:29Z</time></trkpt><trkpt lat="59.0815093182" lon="30.0895932969"><ele>68.50</ele><time>2026-04-25T11:17:48Z</time></trkpt><trkpt lat="59.0814526565" lon="30.0896390621"><ele>68.38</ele><time>2026-04-25T11:18:12Z</time></trkpt><trkpt lat="59.0814726055" lon="30.0896160956"><ele>67.86</ele><time>2026-04-25T11:18:36Z</time></trkpt><trkpt lat="59.0814318694" lon="30.0896802172"><ele>68.41</ele><time>2026-04-25T11:19:03Z</time></trkpt><trkpt lat="59.0813383274" lon="30.0895062927"><ele>68.50</ele><time>2026-04-25T11:19:21Z</time></trkpt><trkpt lat="59.0812487248" lon="30.0892759580"><ele>68.54</ele><time>2026-04-25T11:19:37Z</time></trkpt><trkpt lat="59.0811173804" lon="30.0891087390"><ele>68.50</ele><time>2026-04-25T11:19:54Z</time></trkpt><trkpt lat="59.0810323879" lon="30.0888644904"><ele>68.11</ele><time>2026-04-25T11:20:10Z</time></trkpt><trkpt lat="59.0809956752" lon="30.0885193236"><ele>68.57</ele><time>2026-04-25T11:20:28Z</time></trkpt><trkpt lat="59.0809411928" lon="30.0882494263"><ele>68.32</ele><time>2026-04-25T11:20:46Z</time></trkpt><trkpt lat="59.0809483174" lon="30.0882169884"><ele>68.81</ele><time>2026-04-25T11:20:48Z</time></trkpt><trkpt lat="59.0809393488" lon="30.0879605021"><ele>68.61</ele><time>2026-04-25T11:21:04Z</time></trkpt><trkpt lat="59.0809344035" lon="30.0879546348"><ele>69.02</ele><time>2026-04-25T11:21:05Z</time></trkpt><trkpt lat="59.0808602236" lon="30.0878626853"><ele>68.96</ele><time>2026-04-25T11:21:23Z</time></trkpt><trkpt lat="59.0808454715" lon="30.0878289901"><ele>68.46</ele><time>2026-04-25T11:21:53Z</time></trkpt><trkpt lat="59.0807220060" lon="30.0876794569"><ele>68.46</ele><time>2026-04-25T11:22:12Z</time></trkpt><trkpt lat="59.0806808509" lon="30.0875889324"><ele>67.97</ele><time>2026-04-25T11:22:19Z</time></trkpt><trkpt lat="59.0806400310" lon="30.0873730984"><ele>67.47</ele><time>2026-04-25T11:22:34Z</time></trkpt><trkpt lat="59.0805764124" lon="30.0871677417"><ele>67.68</ele><time>2026-04-25T11:22:52Z</time></trkpt><trkpt lat="59.0805251990" lon="30.0871042907"><ele>67.89</ele><time>2026-04-25T11:23:06Z</time></trkpt><trkpt lat="59.0804774221" lon="30.0868292805"><ele>67.34</ele><time>2026-04-25T11:23:27Z</time></trkpt><trkpt lat="59.0805035736" lon="30.0864872150"><ele>67.55</ele><time>2026-04-25T11:23:47Z</time></trkpt><trkpt lat="59.0804479178" lon="30.0863320660"><ele>67.50</ele><time>2026-04-25T11:24:04Z</time></trkpt><trkpt lat="59.0804275498" lon="30.0862736441"><ele>66.67</ele><time>2026-04-25T11:24:31Z</time></trkpt><trkpt lat="59.0803314094" lon="30.0862656813"><ele>67.27</ele><time>2026-04-25T11:24:56Z</time></trkpt><trkpt lat="59.0803122986" lon="30.0861472450"><ele>66.57</ele><time>2026-04-25T11:25:13Z</time></trkpt><trkpt lat="59.0802990552" lon="30.0859988853"><ele>67.01</ele><time>2026-04-25T11:25:33Z</time></trkpt><trkpt lat="59.0802698862" lon="30.0859428104"><ele>66.82</ele><time>2026-04-25T11:25:48Z</time></trkpt><trkpt lat="59.0802540444" lon="30.0858803652"><ele>67.04</ele><time>2026-04-25T11:26:06Z</time></trkpt><trkpt lat="59.0801757574" lon="30.0857201871"><ele>66.79</ele><time>2026-04-25T11:26:27Z</time></trkpt><trkpt lat="59.0801622625" lon="30.0857176725"><ele>67.39</ele><time>2026-04-25T11:26:30Z</time></trkpt><trkpt lat="59.0800818801" lon="30.0855531357"><ele>67.14</ele><time>2026-04-25T11:26:48Z</time></trkpt><trkpt lat="59.0800731629" lon="30.0854896847"><ele>66.64</ele><time>2026-04-25T11:26:54Z</time></trkpt><trkpt lat="59.0799424052" lon="30.0854292512"><ele>66.63</ele><time>2026-04-25T11:27:15Z</time></trkpt><trkpt lat="59.0798911918" lon="30.0853595976"><ele>67.17</ele><time>2026-04-25T11:27:28Z</time></trkpt><trkpt lat="59.0798051935" lon="30.0851292629"><ele>66.65</ele><time>2026-04-25T11:27:48Z</time></trkpt><trkpt lat="59.0798083786" lon="30.0850958191"><ele>66.83</ele><time>2026-04-25T11:27:51Z</time></trkpt><trkpt lat="59.0798151679" lon="30.0849918835"><ele>66.53</ele><time>2026-04-25T11:28:06Z</time></trkpt><trkpt lat="59.0798134077" lon="30.0849379040"><ele>66.18</ele><time>2026-04-25T11:28:24Z</time></trkpt><trkpt lat="59.0797806345" lon="30.0850059651"><ele>67.06</ele><time>2026-04-25T11:28:53Z</time></trkpt><trkpt lat="59.0797319356" lon="30.0849819090"><ele>66.71</ele><time>2026-04-25T11:29:20Z</time></trkpt><trkpt lat="59.0796579234" lon="30.0849708449"><ele>66.46</ele><time>2026-04-25T11:29:39Z</time></trkpt><trkpt lat="59.0794880223" lon="30.0851174444"><ele>66.06</ele><time>2026-04-25T11:30:03Z</time></trkpt><trkpt lat="59.0793293528" lon="30.0852986611"><ele>67.04</ele><time>2026-04-25T11:30:26Z</time></trkpt><trkpt lat="59.0791993495" lon="30.0854839012"><ele>66.58</ele><time>2026-04-25T11:30:50Z</time></trkpt><trkpt lat="59.0790546779" lon="30.0855624396"><ele>66.50</ele><time>2026-04-25T11:31:10Z</time></trkpt><trkpt lat="59.0789445397" lon="30.0855957158"><ele>66.60</ele><time>2026-04-25T11:31:27Z</time></trkpt><trkpt lat="59.0789085813" lon="30.0855964702"><ele>66.47</ele><time>2026-04-25T11:31:55Z</time></trkpt><trkpt lat="59.0788713656" lon="30.0857215282"><ele>66.25</ele><time>2026-04-25T11:32:19Z</time></trkpt><trkpt lat="59.0788867883" lon="30.0859202631"><ele>66.60</ele><time>2026-04-25T11:32:39Z</time></trkpt><trkpt lat="59.0788943321" lon="30.0860728975"><ele>66.85</ele><time>2026-04-25T11:32:57Z</time></trkpt><trkpt lat="59.0789289493" lon="30.0862743147"><ele>66.61</ele><time>2026-04-25T11:33:16Z</time></trkpt><trkpt lat="59.0789272729" lon="30.0864684395"><ele>66.35</ele><time>2026-04-25T11:33:37Z</time></trkpt><trkpt lat="59.0789465513" lon="30.0867152028"><ele>66.46</ele><time>2026-04-25T11:33:57Z</time></trkpt><trkpt lat="59.0790376626" lon="30.0869102497"><ele>66.01</ele><time>2026-04-25T11:34:21Z</time></trkpt><trkpt lat="59.0790597070" lon="30.0869349763"><ele>67.25</ele><time>2026-04-25T11:34:27Z</time></trkpt><trkpt lat="59.0790804941" lon="30.0869715214"><ele>66.72</ele><time>2026-04-25T11:34:52Z</time></trkpt><trkpt lat="59.0791384969" lon="30.0870698411"><ele>66.87</ele><time>2026-04-25T11:35:15Z</time></trkpt><trkpt lat="59.0792154428" lon="30.0872639660"><ele>67.37</ele><time>2026-04-25T11:35:34Z</time></trkpt><trkpt lat="59.0792682488" lon="30.0873679854"><ele>67.28</ele><time>2026-04-25T11:35:54Z</time></trkpt><trkpt lat="59.0792522393" lon="30.0875968114"><ele>67.07</ele><time>2026-04-25T11:36:12Z</time></trkpt><trkpt lat="59.0793014411" lon="30.0878632721"><ele>67.71</ele><time>2026-04-25T11:36:32Z</time></trkpt><trkpt lat="59.0793052129" lon="30.0880843028"><ele>67.53</ele><time>2026-04-25T11:36:47Z</time></trkpt><trkpt lat="59.0793652274" lon="30.0882547069"><ele>67.68</ele><time>2026-04-25T11:37:05Z</time></trkpt><trkpt lat="59.0794199612" lon="30.0883812737"><ele>66.94</ele><time>2026-04-25T11:37:27Z</time></trkpt><trkpt lat="59.0794208832" lon="30.0885202456"><ele>67.37</ele><time>2026-04-25T11:37:36Z</time></trkpt><trkpt lat="59.0794099867" lon="30.0886698626"><ele>67.48</ele><time>2026-04-25T11:37:49Z</time></trkpt><trkpt lat="59.0794134233" lon="30.0886722934"><ele>67.59</ele><time>2026-04-25T11:38:05Z</time></trkpt><trkpt lat="59.0793792251" lon="30.0887445454"><ele>68.60</ele><time>2026-04-25T11:38:23Z</time></trkpt><trkpt lat="59.0793675743" lon="30.0889452081"><ele>67.82</ele><time>2026-04-25T11:38:42Z</time></trkpt><trkpt lat="59.0794757009" lon="30.0891794823"><ele>67.44</ele><time>2026-04-25T11:39:04Z</time></trkpt><trkpt lat="59.0795030259" lon="30.0892022811"><ele>67.39</ele><time>2026-04-25T11:39:12Z</time></trkpt><trkpt lat="59.0796140861" lon="30.0892877765"><ele>68.26</ele><time>2026-04-25T11:39:34Z</time></trkpt><trkpt lat="59.0796620306" lon="30.0895098131"><ele>67.60</ele><time>2026-04-25T11:39:53Z</time></trkpt><trkpt lat="59.0796621982" lon="30.0898309238"><ele>68.24</ele><time>2026-04-25T11:40:14Z</time></trkpt><trkpt lat="59.0796278324" lon="30.0900416449"><ele>68.04</ele><time>2026-04-25T11:40:29Z</time></trkpt><trkpt lat="59.0795876831" lon="30.0902522821"><ele>67.51</ele><time>2026-04-25T11:40:49Z</time></trkpt><trkpt lat="59.0795809776" lon="30.0902577303"><ele>68.48</ele><time>2026-04-25T11:41:15Z</time></trkpt><trkpt lat="59.0795747750" lon="30.0902403798"><ele>68.09</ele><time>2026-04-25T11:41:33Z</time></trkpt><trkpt lat="59.0796179418" lon="30.0903292280"><ele>68.06</ele><time>2026-04-25T11:41:58Z</time></trkpt><trkpt lat="59.0796966478" lon="30.0904315710"><ele>68.69</ele><time>2026-04-25T11:42:14Z</time></trkpt><trkpt lat="59.0797621943" lon="30.0905987062"><ele>68.23</ele><time>2026-04-25T11:42:32Z</time></trkpt><trkpt lat="59.0798325185" lon="30.0907774922"><ele>68.80</ele><time>2026-04-25T11:42:49Z</time></trkpt><trkpt lat="59.0798844863" lon="30.0908553600"><ele>67.80</ele><time>2026-04-25T11:42:58Z</time></trkpt><trkpt lat="59.0799602587" lon="30.0908589642"><ele>69.06</ele><time>2026-04-25T11:43:16Z</time></trkpt><trkpt lat="59.0800007433" lon="30.0909592956"><ele>68.90</ele><time>2026-04-25T11:43:37Z</time></trkpt><trkpt lat="59.0800009947" lon="30.0910255965"><ele>68.91</ele><time>2026-04-25T11:43:56Z</time></trkpt><trkpt lat="59.0800874960" lon="30.0913316198"><ele>69.01</ele><time>2026-04-25T11:44:17Z</time></trkpt><trkpt lat="59.0801819600" lon="30.0915544108"><ele>68.93</ele><time>2026-04-25T11:44:36Z</time></trkpt><trkpt lat="59.0803387016" lon="30.0917614438"><ele>68.02</ele><time>2026-04-25T11:44:56Z</time></trkpt><trkpt lat="59.0804572217" lon="30.0920050219"><ele>67.86</ele><time>2026-04-25T11:45:16Z</time></trkpt><trkpt lat="59.0805728082" lon="30.0919429120"><ele>68.38</ele><time>2026-04-25T11:45:37Z</time></trkpt><trkpt lat="59.0806329064" lon="30.0919660460"><ele>68.28</ele><time>2026-04-25T11:45:47Z</time></trkpt><trkpt lat="59.0806456469" lon="30.0920503680"><ele>68.25</ele><time>2026-04-25T11:46:15Z</time></trkpt><trkpt lat="59.0807070024" lon="30.0922359433"><ele>67.54</ele><time>2026-04-25T11:46:40Z</time></trkpt><trkpt lat="59.0806862153" lon="30.0922641903"><ele>67.73</ele><time>2026-04-25T11:46:45Z</time></trkpt><trkpt lat="59.0806519333" lon="30.0923395436"><ele>67.46</ele><time>2026-04-25T11:46:51Z</time></trkpt><trkpt lat="59.0805413760" lon="30.0925594009"><ele>67.86</ele><time>2026-04-25T11:47:10Z</time></trkpt><trkpt lat="59.0804358479" lon="30.0927593093"><ele>68.51</ele><time>2026-04-25T11:47:29Z</time></trkpt><trkpt lat="59.0803302359" lon="30.0929838605"><ele>68.10</ele><time>2026-04-25T11:47:50Z</time></trkpt><trkpt lat="59.0802090336" lon="30.0931453798"><ele>68.37</ele><time>2026-04-25T11:48:09Z</time></trkpt><trkpt lat="59.0802267194" lon="30.0930094253"><ele>68.37</ele><time>2026-04-25T11:48:33Z</time></trkpt><trkpt lat="59.0801074449" lon="30.0931794941"><ele>68.39</ele><time>2026-04-25T11:48:57Z</time></trkpt><trkpt lat="59.0800383780" lon="30.0934331305"><ele>68.13</ele><time>2026-04-25T11:49:15Z</time></trkpt><trkpt lat="59.0799954627" lon="30.0936911255"><ele>67.50</ele><time>2026-04-25T11:49:34Z</time></trkpt><trkpt lat="59.0799625218" lon="30.0938436761"><ele>68.21</ele><time>2026-04-25T11:49:53Z</time></trkpt><trkpt lat="59.0798788704" lon="30.0939692371"><ele>67.86</ele><time>2026-04-25T11:50:07Z</time></trkpt><trkpt lat="59.0797309298" lon="30.0940999947"><ele>68.15</ele><time>2026-04-25T11:50:26Z</time></trkpt><trkpt lat="59.0796264075" lon="30.0940954685"><ele>67.97</ele><time>2026-04-25T11:50:47Z</time></trkpt><trkpt lat="59.0796221327" lon="30.0941215362"><ele>68.00</ele><time>2026-04-25T11:51:14Z</time></trkpt><trkpt lat="59.0795570053" lon="30.0939966459"><ele>68.17</ele><time>2026-04-25T11:51:35Z</time></trkpt><trkpt lat="59.0793753695" lon="30.0938182790"><ele>68.37</ele><time>2026-04-25T11:51:57Z</time></trkpt><trkpt lat="59.0792743675" lon="30.0937455241"><ele>68.56</ele><time>2026-04-25T11:52:16Z</time></trkpt><trkpt lat="59.0791313723" lon="30.0936094020"><ele>68.82</ele><time>2026-04-25T11:52:35Z</time></trkpt><trkpt lat="59.0790453739" lon="30.0934720226"><ele>69.16</ele><time>2026-04-25T11:52:58Z</time></trkpt><trkpt lat="59.0790100861" lon="30.0933958311"><ele>69.19</ele><time>2026-04-25T11:53:25Z</time></trkpt><trkpt lat="59.0789337270" lon="30.0931659155"><ele>69.39</ele><time>2026-04-25T11:53:44Z</time></trkpt><trkpt lat="59.0788930748" lon="30.0929496624"><ele>69.01</ele><time>2026-04-25T11:54:02Z</time></trkpt><trkpt lat="59.0788058192" lon="30.0927693676"><ele>69.40</ele><time>2026-04-25T11:54:18Z</time></trkpt><trkpt lat="59.0788068250" lon="30.0925428048"><ele>70.23</ele><time>2026-04-25T11:54:38Z</time></trkpt><trkpt lat="59.0787460562" lon="30.0923400465"><ele>69.83</ele><time>2026-04-25T11:54:58Z</time></trkpt><trkpt lat="59.0786303021" lon="30.0923024956"><ele>70.19</ele><time>2026-04-25T11:55:16Z</time></trkpt><trkpt lat="59.0785298869" lon="30.0923633482"><ele>69.78</ele><time>2026-04-25T11:55:37Z</time></trkpt><trkpt lat="59.0784698725" lon="30.0925236940"><ele>69.78</ele><time>2026-04-25T11:55:59Z</time></trkpt><trkpt lat="59.0784193296" lon="30.0925782602"><ele>70.17</ele><time>2026-04-25T11:56:08Z</time></trkpt><trkpt lat="59.0784452297" lon="30.0926236063"><ele>70.00</ele><time>2026-04-25T11:56:35Z</time></trkpt><trkpt lat="59.0783868916" lon="30.0926402025"><ele>69.64</ele><time>2026-04-25T11:57:03Z</time></trkpt><trkpt lat="59.0783411264" lon="30.0925316568"><ele>70.14</ele><time>2026-04-25T11:57:25Z</time></trkpt><trkpt lat="59.0783356782" lon="30.0922025833"><ele>70.68</ele><time>2026-04-25T11:57:44Z</time></trkpt><trkpt lat="59.0783013962" lon="30.0919908565"><ele>70.70</ele><time>2026-04-25T11:58:01Z</time></trkpt><trkpt lat="59.0782853030" lon="30.0916570891"><ele>70.87</ele><time>2026-04-25T11:58:23Z</time></trkpt><trkpt lat="59.0783301461" lon="30.0914834160"><ele>71.23</ele><time>2026-04-25T11:58:45Z</time></trkpt><trkpt lat="59.0783917531" lon="30.0912529975"><ele>70.55</ele><time>2026-04-25T11:59:08Z</time></trkpt><trkpt lat="59.0784088522" lon="30.0912110042"><ele>70.51</ele><time>2026-04-25T11:59:11Z</time></trkpt><trkpt lat="59.0784908272" lon="30.0909575354"><ele>70.98</ele><time>2026-04-25T11:59:31Z</time></trkpt><trkpt lat="59.0785192419" lon="30.0907670148"><ele>71.16</ele><time>2026-04-25T11:59:51Z</time></trkpt><trkpt lat="59.0784901567" lon="30.0908606406"><ele>70.51</ele><time>2026-04-25T12:00:14Z</time></trkpt><trkpt lat="59.0785208344" lon="30.0908665080"><ele>70.61</ele><time>2026-04-25T12:00:42Z</time></trkpt><trkpt lat="59.0785215050" lon="30.0909487344"><ele>69.89</ele><time>2026-04-25T12:01:01Z</time></trkpt><trkpt lat="59.0785059147" lon="30.0908782426"><ele>71.50</ele><time>2026-04-25T12:01:32Z</time></trkpt><trkpt lat="59.0785199124" lon="30.0908161327"><ele>70.18</ele><time>2026-04-25T12:02:07Z</time></trkpt><trkpt lat="59.0784833673" lon="30.0907702837"><ele>70.20</ele><time>2026-04-25T12:02:40Z</time></trkpt><trkpt lat="59.0785066690" lon="30.0908366684"><ele>69.45</ele><time>2026-04-25T12:03:07Z</time></trkpt><trkpt lat="59.0784971975" lon="30.0908101816"><ele>70.48</ele><time>2026-04-25T12:03:36Z</time></trkpt><trkpt lat="59.0784546174" lon="30.0907484908"><ele>69.47</ele><time>2026-04-25T12:04:07Z</time></trkpt><trkpt lat="59.0785142966" lon="30.0907812640"><ele>70.77</ele><time>2026-04-25T12:04:36Z</time></trkpt><trkpt lat="59.0785126202" lon="30.0907920767"><ele>70.59</ele><time>2026-04-25T12:05:05Z</time></trkpt><trkpt lat="59.0785119496" lon="30.0908381771"><ele>70.77</ele><time>2026-04-25T12:05:35Z</time></trkpt><trkpt lat="59.0784728900" lon="30.0908209942"><ele>69.87</ele><time>2026-04-25T12:06:01Z</time></trkpt><trkpt lat="59.0784552041" lon="30.0908691064"><ele>70.50</ele><time>2026-04-25T12:06:25Z</time></trkpt><trkpt lat="59.0784537792" lon="30.0908488221"><ele>70.69</ele><time>2026-04-25T12:06:27Z</time></trkpt><trkpt lat="59.0784873068" lon="30.0908325613"><ele>70.37</ele><time>2026-04-25T12:06:55Z</time></trkpt><trkpt lat="59.0784877259" lon="30.0908373389"><ele>69.90</ele><time>2026-04-25T12:07:00Z</time></trkpt><trkpt lat="59.0784940962" lon="30.0908526778"><ele>69.96</ele><time>2026-04-25T12:07:29Z</time></trkpt><trkpt lat="59.0785065852" lon="30.0908604730"><ele>70.61</ele><time>2026-04-25T12:07:55Z</time></trkpt><trkpt lat="59.0784956049" lon="30.0908774044"><ele>70.05</ele><time>2026-04-25T12:08:21Z</time></trkpt><trkpt lat="59.0784648433" lon="30.0908209942"><ele>67.00</ele><time>2026-04-25T12:08:50Z</time></trkpt><trkpt lat="59.0784666874" lon="30.0908205751"><ele>70.56</ele><time>2026-04-25T12:08:52Z</time></trkpt><trkpt lat="59.0784740634" lon="30.0907856226"><ele>70.44</ele><time>2026-04-25T12:09:23Z</time></trkpt><trkpt lat="59.0785125364" lon="30.0908418652"><ele>70.09</ele><time>2026-04-25T12:09:54Z</time></trkpt><trkpt lat="59.0785272885" lon="30.0908530969"><ele>70.48</ele><time>2026-04-25T12:10:21Z</time></trkpt><trkpt lat="59.0785138775" lon="30.0908900611"><ele>69.86</ele><time>2026-04-25T12:10:46Z</time></trkpt><trkpt lat="59.0784974489" lon="30.0908846967"><ele>69.73</ele><time>2026-04-25T12:11:04Z</time></trkpt><trkpt lat="59.0784271248" lon="30.0909887999"><ele>70.39</ele><time>2026-04-25T12:11:23Z</time></trkpt><trkpt lat="59.0784005541" lon="30.0911794882"><ele>69.58</ele><time>2026-04-25T12:11:46Z</time></trkpt><trkpt lat="59.0783422161" lon="30.0912270136"><ele>69.37</ele><time>2026-04-25T12:12:05Z</time></trkpt><trkpt lat="59.0782721434" lon="30.0911977608"><ele>69.14</ele><time>2026-04-25T12:12:21Z</time></trkpt><trkpt lat="59.0781630110" lon="30.0911486428"><ele>69.45</ele><time>2026-04-25T12:12:36Z</time></trkpt><trkpt lat="59.0781118814" lon="30.0909368321"><ele>70.31</ele><time>2026-04-25T12:12:54Z</time></trkpt><trkpt lat="59.0779771004" lon="30.0909898058"><ele>69.63</ele><time>2026-04-25T12:13:11Z</time></trkpt><trkpt lat="59.0779187623" lon="30.0910167117"><ele>69.00</ele><time>2026-04-25T12:13:18Z</time></trkpt><trkpt lat="59.0778419841" lon="30.0909816753"><ele>69.59</ele><time>2026-04-25T12:13:39Z</time></trkpt><trkpt lat="59.0777507890" lon="30.0908675976"><ele>69.49</ele><time>2026-04-25T12:14:03Z</time></trkpt><trkpt lat="59.0776739269" lon="30.0907080900"><ele>68.77</ele><time>2026-04-25T12:14:21Z</time></trkpt><trkpt lat="59.0775621124" lon="30.0907188188"><ele>69.22</ele><time>2026-04-25T12:14:38Z</time></trkpt><trkpt lat="59.0774706658" lon="30.0907567888"><ele>69.33</ele><time>2026-04-25T12:14:58Z</time></trkpt><trkpt lat="59.0774242301" lon="30.0907660089"><ele>69.83</ele><time>2026-04-25T12:15:27Z</time></trkpt><trkpt lat="59.0772896167" lon="30.0908260234"><ele>68.95</ele><time>2026-04-25T12:15:47Z</time></trkpt><trkpt lat="59.0771794785" lon="30.0908793323"><ele>69.12</ele><time>2026-04-25T12:16:01Z</time></trkpt><trkpt lat="59.0770248324" lon="30.0908742193"><ele>69.11</ele><time>2026-04-25T12:16:22Z</time></trkpt><trkpt lat="59.0768532548" lon="30.0908396021"><ele>68.99</ele><time>2026-04-25T12:16:43Z</time></trkpt><trkpt lat="59.0768009517" lon="30.0908395182"><ele>69.36</ele><time>2026-04-25T12:17:04Z</time></trkpt><trkpt lat="59.0768829267" lon="30.0907472335"><ele>69.38</ele><time>2026-04-25T12:17:36Z</time></trkpt><trkpt lat="59.0768305399" lon="30.0907821022"><ele>69.27</ele><time>2026-04-25T12:17:47Z</time></trkpt><trkpt lat="59.0767271910" lon="30.0909004547"><ele>69.19</ele><time>2026-04-25T12:18:18Z</time></trkpt><trkpt lat="59.0766974352" lon="30.0906720478"><ele>68.96</ele><time>2026-04-25T12:18:37Z</time></trkpt><trkpt lat="59.0765991993" lon="30.0904993806"><ele>69.44</ele><time>2026-04-25T12:18:57Z</time></trkpt><trkpt lat="59.0765077528" lon="30.0905258674"><ele>69.61</ele><time>2026-04-25T12:19:10Z</time></trkpt><trkpt lat="59.0763493348" lon="30.0905671902"><ele>69.23</ele><time>2026-04-25T12:19:31Z</time></trkpt><trkpt lat="59.0763281286" lon="30.0905892346"><ele>70.00</ele><time>2026-04-25T12:19:58Z</time></trkpt><trkpt lat="59.0763036534" lon="30.0905939285"><ele>69.76</ele><time>2026-04-25T12:20:02Z</time></trkpt><trkpt lat="59.0762767475" lon="30.0906012207"><ele>69.70</ele><time>2026-04-25T12:20:06Z</time></trkpt><trkpt lat="59.0762530267" lon="30.0907902326"><ele>69.74</ele><time>2026-04-25T12:20:27Z</time></trkpt><trkpt lat="59.0761855524" lon="30.0908748899"><ele>69.36</ele><time>2026-04-25T12:20:46Z</time></trkpt><trkpt lat="59.0760463290" lon="30.0909779873"><ele>69.07</ele><time>2026-04-25T12:21:07Z</time></trkpt><trkpt lat="59.0759642702" lon="30.0910002831"><ele>69.56</ele><time>2026-04-25T12:21:23Z</time></trkpt><trkpt lat="59.0758943651" lon="30.0909886323"><ele>69.59</ele><time>2026-04-25T12:21:42Z</time></trkpt><trkpt lat="59.0756978933" lon="30.0910541788"><ele>69.87</ele><time>2026-04-25T12:22:03Z</time></trkpt><trkpt lat="59.0756159183" lon="30.0910825096"><ele>69.36</ele><time>2026-04-25T12:22:17Z</time></trkpt><trkpt lat="59.0755074564" lon="30.0912692584"><ele>69.72</ele><time>2026-04-25T12:22:46Z</time></trkpt><trkpt lat="59.0754116513" lon="30.0911995210"><ele>69.87</ele><time>2026-04-25T12:23:03Z</time></trkpt><trkpt lat="59.0753217135" lon="30.0912241638"><ele>69.07</ele><time>2026-04-25T12:23:22Z</time></trkpt><trkpt lat="59.0752076358" lon="30.0913349725"><ele>69.35</ele><time>2026-04-25T12:23:42Z</time></trkpt><trkpt lat="59.0750863496" lon="30.0913003553"><ele>68.35</ele><time>2026-04-25T12:23:57Z</time></trkpt><trkpt lat="59.0749049652" lon="30.0912446156"><ele>68.19</ele><time>2026-04-25T12:24:20Z</time></trkpt><trkpt lat="59.0748503990" lon="30.0912032090"><ele>68.09</ele><time>2026-04-25T12:24:34Z</time></trkpt><trkpt lat="59.0747627243" lon="30.0912852678"><ele>68.09</ele><time>2026-04-25T12:25:01Z</time></trkpt><trkpt lat="59.0746429469" lon="30.0912643969"><ele>68.13</ele><time>2026-04-25T12:25:13Z</time></trkpt><trkpt lat="59.0744562820" lon="30.0912366528"><ele>68.32</ele><time>2026-04-25T12:25:34Z</time></trkpt><trkpt lat="59.0742933378" lon="30.0912520755"><ele>68.18</ele><time>2026-04-25T12:25:53Z</time></trkpt><trkpt lat="59.0742364246" lon="30.0912452862"><ele>67.83</ele><time>2026-04-25T12:25:58Z</time></trkpt><trkpt lat="59.0741120372" lon="30.0912238285"><ele>67.31</ele><time>2026-04-25T12:26:20Z</time></trkpt><trkpt lat="59.0741225984" lon="30.0912467949"><ele>67.10</ele><time>2026-04-25T12:26:46Z</time></trkpt><trkpt lat="59.0740223508" lon="30.0912349764"><ele>67.63</ele><time>2026-04-25T12:27:05Z</time></trkpt><trkpt lat="59.0738432296" lon="30.0911960006"><ele>67.80</ele><time>2026-04-25T12:27:21Z</time></trkpt><trkpt lat="59.0737590753" lon="30.0910365768"><ele>68.57</ele><time>2026-04-25T12:27:36Z</time></trkpt><trkpt lat="59.0737081133" lon="30.0909070764"><ele>68.06</ele><time>2026-04-25T12:27:49Z</time></trkpt><trkpt lat="59.0735747572" lon="30.0909691025"><ele>68.28</ele><time>2026-04-25T12:28:03Z</time></trkpt><trkpt lat="59.0733627789" lon="30.0908965152"><ele>68.65</ele><time>2026-04-25T12:28:24Z</time></trkpt><trkpt lat="59.0732703265" lon="30.0907814316"><ele>68.76</ele><time>2026-04-25T12:28:45Z</time></trkpt><trkpt lat="59.0732298419" lon="30.0908013806"><ele>69.01</ele><time>2026-04-25T12:29:13Z</time></trkpt><trkpt lat="59.0732067078" lon="30.0908064935"><ele>69.41</ele><time>2026-04-25T12:29:15Z</time></trkpt><trkpt lat="59.0730421711" lon="30.0908209942"><ele>68.81</ele><time>2026-04-25T12:29:34Z</time></trkpt><trkpt lat="59.0729938075" lon="30.0909147877"><ele>69.08</ele><time>2026-04-25T12:29:52Z</time></trkpt><trkpt lat="59.0729638841" lon="30.0910541788"><ele>68.61</ele><time>2026-04-25T12:30:10Z</time></trkpt><trkpt lat="59.0729226451" lon="30.0911283586"><ele>68.66</ele><time>2026-04-25T12:30:19Z</time></trkpt><trkpt lat="59.0728513990" lon="30.0912581943"><ele>69.31</ele><time>2026-04-25T12:30:38Z</time></trkpt><trkpt lat="59.0727279335" lon="30.0914136786"><ele>68.52</ele><time>2026-04-25T12:30:59Z</time></trkpt><trkpt lat="59.0727089904" lon="30.0914891157"><ele>68.91</ele><time>2026-04-25T12:31:14Z</time></trkpt><trkpt lat="59.0726878680" lon="30.0915101543"><ele>68.85</ele><time>2026-04-25T12:31:43Z</time></trkpt><trkpt lat="59.0726405941" lon="30.0915731024"><ele>69.40</ele><time>2026-04-25T12:32:12Z</time></trkpt><trkpt lat="59.0725276899" lon="30.0913148560"><ele>69.08</ele><time>2026-04-25T12:32:36Z</time></trkpt><trkpt lat="59.0724010393" lon="30.0912662409"><ele>69.52</ele><time>2026-04-25T12:32:58Z</time></trkpt><trkpt lat="59.0723539330" lon="30.0913524069"><ele>69.31</ele><time>2026-04-25T12:33:19Z</time></trkpt><trkpt lat="59.0722741373" lon="30.0916000083"><ele>70.01</ele><time>2026-04-25T12:33:37Z</time></trkpt><trkpt lat="59.0721613169" lon="30.0917960610"><ele>70.11</ele><time>2026-04-25T12:33:57Z</time></trkpt><trkpt lat="59.0720761567" lon="30.0919693988"><ele>70.09</ele><time>2026-04-25T12:34:11Z</time></trkpt><trkpt lat="59.0719906613" lon="30.0921320915"><ele>69.79</ele><time>2026-04-25T12:34:28Z</time></trkpt><trkpt lat="59.0718397871" lon="30.0922418945"><ele>70.33</ele><time>2026-04-25T12:34:47Z</time></trkpt><trkpt lat="59.0718794335" lon="30.0922279805"><ele>70.21</ele><time>2026-04-25T12:35:11Z</time></trkpt><trkpt lat="59.0717625059" lon="30.0922593288"><ele>70.24</ele><time>2026-04-25T12:35:30Z</time></trkpt><trkpt lat="59.0715856478" lon="30.0923206005"><ele>69.76</ele><time>2026-04-25T12:35:52Z</time></trkpt><trkpt lat="59.0714429878" lon="30.0924273860"><ele>69.85</ele><time>2026-04-25T12:36:12Z</time></trkpt><trkpt lat="59.0713937022" lon="30.0925614964"><ele>70.10</ele><time>2026-04-25T12:36:27Z</time></trkpt><trkpt lat="59.0713863261" lon="30.0925715547"><ele>69.77</ele><time>2026-04-25T12:36:29Z</time></trkpt><trkpt lat="59.0712793730" lon="30.0924889930"><ele>69.35</ele><time>2026-04-25T12:36:45Z</time></trkpt><trkpt lat="59.0711607691" lon="30.0923941098"><ele>70.54</ele><time>2026-04-25T12:37:00Z</time></trkpt><trkpt lat="59.0711010899" lon="30.0921304151"><ele>69.86</ele><time>2026-04-25T12:37:19Z</time></trkpt><trkpt lat="59.0710035246" lon="30.0919563230"><ele>69.84</ele><time>2026-04-25T12:37:37Z</time></trkpt><trkpt lat="59.0709304344" lon="30.0917623658"><ele>69.69</ele><time>2026-04-25T12:37:53Z</time></trkpt><trkpt lat="59.0709209628" lon="30.0917948037"><ele>69.44</ele><time>2026-04-25T12:38:18Z</time></trkpt><trkpt lat="59.0709135029" lon="30.0916671474"><ele>69.69</ele><time>2026-04-25T12:38:48Z</time></trkpt><trkpt lat="59.0709204599" lon="30.0915225595"><ele>70.05</ele><time>2026-04-25T12:39:06Z</time></trkpt><trkpt lat="59.0709285904" lon="30.0915191229"><ele>69.68</ele><time>2026-04-25T12:39:14Z</time></trkpt><trkpt lat="59.0709347092" lon="30.0913415942"><ele>69.78</ele><time>2026-04-25T12:39:31Z</time></trkpt><trkpt lat="59.0709230583" lon="30.0911222398"><ele>68.75</ele><time>2026-04-25T12:39:50Z</time></trkpt><trkpt lat="59.0709369723" lon="30.0909024663"><ele>68.26</ele><time>2026-04-25T12:40:08Z</time></trkpt><trkpt lat="59.0709509701" lon="30.0907763187"><ele>68.46</ele><time>2026-04-25T12:40:27Z</time></trkpt><trkpt lat="59.0708482079" lon="30.0904738996"><ele>68.96</ele><time>2026-04-25T12:40:47Z</time></trkpt><trkpt lat="59.0707399976" lon="30.0903441478"><ele>69.07</ele><time>2026-04-25T12:41:02Z</time></trkpt><trkpt lat="59.0706502274" lon="30.0902303215"><ele>68.86</ele><time>2026-04-25T12:41:23Z</time></trkpt><trkpt lat="59.0706464555" lon="30.0901358575"><ele>69.24</ele><time>2026-04-25T12:41:43Z</time></trkpt><trkpt lat="59.0706871916" lon="30.0899380445"><ele>68.91</ele><time>2026-04-25T12:42:07Z</time></trkpt><trkpt lat="59.0707132593" lon="30.0898019224"><ele>68.06</ele><time>2026-04-25T12:42:32Z</time></trkpt><trkpt lat="59.0707274247" lon="30.0898134056"><ele>68.20</ele><time>2026-04-25T12:43:03Z</time></trkpt><trkpt lat="59.0707168635" lon="30.0897859968"><ele>68.04</ele><time>2026-04-25T12:43:31Z</time></trkpt><trkpt lat="59.0707715135" lon="30.0897096377"><ele>68.48</ele><time>2026-04-25T12:43:58Z</time></trkpt><trkpt lat="59.0708683245" lon="30.0896451809"><ele>68.38</ele><time>2026-04-25T12:44:18Z</time></trkpt><trkpt lat="59.0709476173" lon="30.0896315183"><ele>68.93</ele><time>2026-04-25T12:44:37Z</time></trkpt><trkpt lat="59.0709925443" lon="30.0895223022"><ele>68.15</ele><time>2026-04-25T12:44:55Z</time></trkpt><trkpt lat="59.0710707475" lon="30.0894018542"><ele>68.63</ele><time>2026-04-25T12:45:17Z</time></trkpt><trkpt lat="59.0710782073" lon="30.0893953163"><ele>68.65</ele><time>2026-04-25T12:45:18Z</time></trkpt><trkpt lat="59.0711602662" lon="30.0893037021"><ele>67.97</ele><time>2026-04-25T12:45:40Z</time></trkpt><trkpt lat="59.0711742640" lon="30.0893099047"><ele>71.81</ele><time>2026-04-25T12:45:48Z</time></trkpt><trkpt lat="59.0711838193" lon="30.0892838370"><ele>68.61</ele><time>2026-04-25T12:45:49Z</time></trkpt><trkpt lat="59.0711938776" lon="30.0892855134"><ele>68.50</ele><time>2026-04-25T12:45:51Z</time></trkpt><trkpt lat="59.0713299159" lon="30.0891667418"><ele>68.53</ele><time>2026-04-25T12:46:06Z</time></trkpt><trkpt lat="59.0714515373" lon="30.0892956555"><ele>68.30</ele><time>2026-04-25T12:46:25Z</time></trkpt><trkpt lat="59.0715258010" lon="30.0893965736"><ele>68.07</ele><time>2026-04-25T12:46:39Z</time></trkpt><trkpt lat="59.0716515295" lon="30.0895204581"><ele>67.77</ele><time>2026-04-25T12:47:01Z</time></trkpt><trkpt lat="59.0717284754" lon="30.0895533990"><ele>67.75</ele><time>2026-04-25T12:47:13Z</time></trkpt><trkpt lat="59.0718462411" lon="30.0894740224"><ele>68.03</ele><time>2026-04-25T12:47:36Z</time></trkpt><trkpt lat="59.0718816128" lon="30.0895347912"><ele>67.93</ele><time>2026-04-25T12:48:06Z</time></trkpt><trkpt lat="59.0720311459" lon="30.0894844159"><ele>67.68</ele><time>2026-04-25T12:48:28Z</time></trkpt><trkpt lat="59.0721579641" lon="30.0895425025"><ele>68.19</ele><time>2026-04-25T12:48:45Z</time></trkpt><trkpt lat="59.0722982772" lon="30.0895863399"><ele>67.53</ele><time>2026-04-25T12:49:02Z</time></trkpt><trkpt lat="59.0724145342" lon="30.0896540657"><ele>68.09</ele><time>2026-04-25T12:49:22Z</time></trkpt><trkpt lat="59.0725519974" lon="30.0894905347"><ele>67.94</ele><time>2026-04-25T12:49:40Z</time></trkpt><trkpt lat="59.0726920590" lon="30.0893616211"><ele>68.57</ele><time>2026-04-25T12:50:01Z</time></trkpt><trkpt lat="59.0727343038" lon="30.0892387424"><ele>68.18</ele><time>2026-04-25T12:50:23Z</time></trkpt><trkpt lat="59.0727902949" lon="30.0893477909"><ele>67.74</ele><time>2026-04-25T12:50:40Z</time></trkpt><trkpt lat="59.0727873612" lon="30.0894307718"><ele>67.82</ele><time>2026-04-25T12:50:48Z</time></trkpt><trkpt lat="59.0729683265" lon="30.0892971642"><ele>67.70</ele><time>2026-04-25T12:51:10Z</time></trkpt><trkpt lat="59.0731244814" lon="30.0892414246"><ele>66.39</ele><time>2026-04-25T12:51:32Z</time></trkpt><trkpt lat="59.0732764453" lon="30.0892754551"><ele>65.77</ele><time>2026-04-25T12:51:51Z</time></trkpt><trkpt lat="59.0732828993" lon="30.0892750360"><ele>66.12</ele><time>2026-04-25T12:51:52Z</time></trkpt><trkpt lat="59.0734559856" lon="30.0891219825"><ele>65.49</ele><time>2026-04-25T12:52:15Z</time></trkpt><trkpt lat="59.0735334344" lon="30.0890965853"><ele>65.64</ele><time>2026-04-25T12:52:33Z</time></trkpt><trkpt lat="59.0735680517" lon="30.0891014468"><ele>65.60</ele><time>2026-04-25T12:52:38Z</time></trkpt><trkpt lat="59.0736395493" lon="30.0890612975"><ele>65.66</ele><time>2026-04-25T12:52:49Z</time></trkpt><trkpt lat="59.0737424791" lon="30.0889843516"><ele>65.43</ele><time>2026-04-25T12:53:09Z</time></trkpt><trkpt lat="59.0737133939" lon="30.0889214873"><ele>65.83</ele><time>2026-04-25T12:53:39Z</time></trkpt><trkpt lat="59.0738014877" lon="30.0889518298"><ele>64.92</ele><time>2026-04-25T12:54:04Z</time></trkpt><trkpt lat="59.0738771763" lon="30.0888893008"><ele>65.02</ele><time>2026-04-25T12:54:28Z</time></trkpt><trkpt lat="59.0739237797" lon="30.0888855290"><ele>64.72</ele><time>2026-04-25T12:54:38Z</time></trkpt><trkpt lat="59.0740314871" lon="30.0889883749"><ele>65.20</ele><time>2026-04-25T12:54:57Z</time></trkpt><trkpt lat="59.0741194971" lon="30.0889802445"><ele>64.30</ele><time>2026-04-25T12:55:16Z</time></trkpt><trkpt lat="59.0741287172" lon="30.0889791548"><ele>64.81</ele><time>2026-04-25T12:55:18Z</time></trkpt><trkpt lat="59.0741743986" lon="30.0887726247"><ele>64.98</ele><time>2026-04-25T12:55:40Z</time></trkpt><trkpt lat="59.0742345806" lon="30.0887101796"><ele>65.37</ele><time>2026-04-25T12:55:59Z</time></trkpt><trkpt lat="59.0743214171" lon="30.0886618160"><ele>64.24</ele><time>2026-04-25T12:56:17Z</time></trkpt><trkpt lat="59.0743672661" lon="30.0886142906"><ele>65.08</ele><time>2026-04-25T12:56:36Z</time></trkpt><trkpt lat="59.0744318068" lon="30.0886213314"><ele>64.75</ele><time>2026-04-25T12:57:00Z</time></trkpt><trkpt lat="59.0745587088" lon="30.0886949245"><ele>64.31</ele><time>2026-04-25T12:57:23Z</time></trkpt><trkpt lat="59.0746272728" lon="30.0889374129"><ele>65.19</ele><time>2026-04-25T12:57:47Z</time></trkpt><trkpt lat="59.0746411867" lon="30.0889540091"><ele>65.46</ele><time>2026-04-25T12:58:15Z</time></trkpt><trkpt lat="59.0746912267" lon="30.0889997743"><ele>64.43</ele><time>2026-04-25T12:58:38Z</time></trkpt><trkpt lat="59.0747261792" lon="30.0889132731"><ele>65.39</ele><time>2026-04-25T12:59:00Z</time></trkpt><trkpt lat="59.0747719444" lon="30.0888921507"><ele>64.26</ele><time>2026-04-25T12:59:17Z</time></trkpt><trkpt lat="59.0748895425" lon="30.0889348146"><ele>65.58</ele><time>2026-04-25T12:59:37Z</time></trkpt><trkpt lat="59.0749363136" lon="30.0888034701"><ele>65.70</ele><time>2026-04-25T12:59:58Z</time></trkpt><trkpt lat="59.0750227310" lon="30.0886247680"><ele>65.25</ele><time>2026-04-25T13:00:21Z</time></trkpt><trkpt lat="59.0750355553" lon="30.0884662662"><ele>65.56</ele><time>2026-04-25T13:00:40Z</time></trkpt><trkpt lat="59.0751052927" lon="30.0882946048"><ele>64.99</ele><time>2026-04-25T13:01:00Z</time></trkpt><trkpt lat="59.0751684085" lon="30.0881562196"><ele>65.06</ele><time>2026-04-25T13:01:20Z</time></trkpt><trkpt lat="59.0752692427" lon="30.0881540403"><ele>65.93</ele><time>2026-04-25T13:01:43Z</time></trkpt><trkpt lat="59.0753449313" lon="30.0882091932"><ele>65.00</ele><time>2026-04-25T13:02:01Z</time></trkpt><trkpt lat="59.0754063707" lon="30.0883159786"><ele>64.64</ele><time>2026-04-25T13:02:18Z</time></trkpt><trkpt lat="59.0755129047" lon="30.0883742329"><ele>64.88</ele><time>2026-04-25T13:02:39Z</time></trkpt><trkpt lat="59.0755164251" lon="30.0883199181"><ele>65.24</ele><time>2026-04-25T13:03:09Z</time></trkpt><trkpt lat="59.0755816363" lon="30.0883580558"><ele>64.92</ele><time>2026-04-25T13:03:31Z</time></trkpt><trkpt lat="59.0756727476" lon="30.0884766597"><ele>65.10</ele><time>2026-04-25T13:03:48Z</time></trkpt><trkpt lat="59.0757308342" lon="30.0885101873"><ele>65.06</ele><time>2026-04-25T13:04:05Z</time></trkpt><trkpt lat="59.0757433232" lon="30.0884588901"><ele>64.35</ele><time>2026-04-25T13:04:27Z</time></trkpt><trkpt lat="59.0757740848" lon="30.0883428007"><ele>64.58</ele><time>2026-04-25T13:04:46Z</time></trkpt><trkpt lat="59.0758362785" lon="30.0882722251"><ele>65.14</ele><time>2026-04-25T13:05:06Z</time></trkpt><trkpt lat="59.0759112965" lon="30.0882259570"><ele>64.48</ele><time>2026-04-25T13:05:24Z</time></trkpt><trkpt lat="59.0759910084" lon="30.0881108735"><ele>65.24</ele><time>2026-04-25T13:05:45Z</time></trkpt><trkpt lat="59.0760933515" lon="30.0880750827"><ele>64.79</ele><time>2026-04-25T13:06:07Z</time></trkpt><trkpt lat="59.0761732310" lon="30.0879506953"><ele>65.08</ele><time>2026-04-25T13:06:30Z</time></trkpt><trkpt lat="59.0762155596" lon="30.0880133081"><ele>65.28</ele><time>2026-04-25T13:06:55Z</time></trkpt><trkpt lat="59.0762180742" lon="30.0879226997"><ele>65.24</ele><time>2026-04-25T13:07:15Z</time></trkpt><trkpt lat="59.0762066748" lon="30.0879041757"><ele>65.09</ele><time>2026-04-25T13:07:22Z</time></trkpt><trkpt lat="59.0762248635" lon="30.0878298283"><ele>65.45</ele><time>2026-04-25T13:07:51Z</time></trkpt><trkpt lat="59.0763176512" lon="30.0878931116"><ele>65.68</ele><time>2026-04-25T13:08:14Z</time></trkpt><trkpt lat="59.0763890650" lon="30.0879231188"><ele>65.17</ele><time>2026-04-25T13:08:35Z</time></trkpt><trkpt lat="59.0764266998" lon="30.0879263878"><ele>65.74</ele><time>2026-04-25T13:08:45Z</time></trkpt><trkpt lat="59.0765389334" lon="30.0878218655"><ele>65.89</ele><time>2026-04-25T13:09:07Z</time></trkpt><trkpt lat="59.0766313020" lon="30.0878487714"><ele>65.64</ele><time>2026-04-25T13:09:27Z</time></trkpt><trkpt lat="59.0767215751" lon="30.0879294053"><ele>65.89</ele><time>2026-04-25T13:09:48Z</time></trkpt><trkpt lat="59.0767960064" lon="30.0879605021"><ele>65.31</ele><time>2026-04-25T13:10:12Z</time></trkpt><trkpt lat="59.0768464655" lon="30.0880654436"><ele>65.74</ele><time>2026-04-25T13:10:32Z</time></trkpt><trkpt lat="59.0769011993" lon="30.0880966242"><ele>65.66</ele><time>2026-04-25T13:10:57Z</time></trkpt><trkpt lat="59.0769207291" lon="30.0881296489"><ele>65.30</ele><time>2026-04-25T13:11:18Z</time></trkpt><trkpt lat="59.0769741219" lon="30.0882055052"><ele>66.08</ele><time>2026-04-25T13:11:37Z</time></trkpt><trkpt lat="59.0770340525" lon="30.0882885698"><ele>65.83</ele><time>2026-04-25T13:11:57Z</time></trkpt><trkpt lat="59.0769773908" lon="30.0881971233"><ele>65.65</ele><time>2026-04-25T13:12:31Z</time></trkpt><trkpt lat="59.0770274308" lon="30.0882164016"><ele>66.26</ele><time>2026-04-25T13:12:48Z</time></trkpt><trkpt lat="59.0770845115" lon="30.0883557927"><ele>66.56</ele><time>2026-04-25T13:13:08Z</time></trkpt><trkpt lat="59.0770912170" lon="30.0884067547"><ele>66.89</ele><time>2026-04-25T13:13:34Z</time></trkpt><trkpt lat="59.0771191288" lon="30.0883228518"><ele>67.03</ele><time>2026-04-25T13:13:52Z</time></trkpt><trkpt lat="59.0771892853" lon="30.0882438105"><ele>66.97</ele><time>2026-04-25T13:14:12Z</time></trkpt><trkpt lat="59.0771934763" lon="30.0880650245"><ele>66.83</ele><time>2026-04-25T13:14:30Z</time></trkpt><trkpt lat="59.0772463661" lon="30.0879787747"><ele>68.19</ele><time>2026-04-25T13:14:48Z</time></trkpt><trkpt lat="59.0773155168" lon="30.0878902618"><ele>67.21</ele><time>2026-04-25T13:15:06Z</time></trkpt><trkpt lat="59.0774339531" lon="30.0878325943"><ele>67.75</ele><time>2026-04-25T13:15:30Z</time></trkpt><trkpt lat="59.0775436722" lon="30.0877377950"><ele>67.74</ele><time>2026-04-25T13:15:51Z</time></trkpt><trkpt lat="59.0776189417" lon="30.0875887647"><ele>68.07</ele><time>2026-04-25T13:16:08Z</time></trkpt><trkpt lat="59.0776394773" lon="30.0875421613"><ele>67.19</ele><time>2026-04-25T13:16:31Z</time></trkpt><trkpt lat="59.0777117293" lon="30.0877421536"><ele>67.13</ele><time>2026-04-25T13:16:54Z</time></trkpt><trkpt lat="59.0776679758" lon="30.0879581552"><ele>68.36</ele><time>2026-04-25T13:17:12Z</time></trkpt><trkpt lat="59.0777147468" lon="30.0881182496"><ele>68.12</ele><time>2026-04-25T13:17:34Z</time></trkpt><trkpt lat="59.0777711570" lon="30.0880640186"><ele>68.27</ele><time>2026-04-25T13:17:53Z</time></trkpt><trkpt lat="59.0777479392" lon="30.0880537089"><ele>68.15</ele><time>2026-04-25T13:18:21Z</time></trkpt><trkpt lat="59.0777835622" lon="30.0879818760"><ele>68.11</ele><time>2026-04-25T13:18:50Z</time></trkpt><trkpt lat="59.0778023377" lon="30.0880264677"><ele>67.95</ele><time>2026-04-25T13:19:23Z</time></trkpt><trkpt lat="59.0778242145" lon="30.0879978016"><ele>68.27</ele><time>2026-04-25T13:19:53Z</time></trkpt><trkpt lat="59.0778589156" lon="30.0879489351"><ele>68.22</ele><time>2026-04-25T13:20:16Z</time></trkpt><trkpt lat="59.0778351948" lon="30.0878950395"><ele>68.10</ele><time>2026-04-25T13:20:41Z</time></trkpt><trkpt lat="59.0778273996" lon="30.0877993181"><ele>68.40</ele><time>2026-04-25T13:21:01Z</time></trkpt><trkpt lat="59.0778014995" lon="30.0877264794"><ele>68.22</ele><time>2026-04-25T13:21:22Z</time></trkpt><trkpt lat="59.0777819697" lon="30.0876258966"><ele>67.67</ele><time>2026-04-25T13:21:44Z</time></trkpt><trkpt lat="59.0777023416" lon="30.0875507109"><ele>67.42</ele><time>2026-04-25T13:22:06Z</time></trkpt><trkpt lat="59.0777113941" lon="30.0873371400"><ele>68.18</ele><time>2026-04-25T13:22:23Z</time></trkpt><trkpt lat="59.0777275711" lon="30.0871519838"><ele>68.45</ele><time>2026-04-25T13:22:40Z</time></trkpt><trkpt lat="59.0776895173" lon="30.0870761275"><ele>67.89</ele><time>2026-04-25T13:22:58Z</time></trkpt><trkpt lat="59.0776301734" lon="30.0870558433"><ele>67.43</ele><time>2026-04-25T13:23:16Z</time></trkpt><trkpt lat="59.0775943827" lon="30.0870724395"><ele>68.00</ele><time>2026-04-25T13:23:47Z</time></trkpt><trkpt lat="59.0775994956" lon="30.0868563540"><ele>68.07</ele><time>2026-04-25T13:24:08Z</time></trkpt><trkpt lat="59.0776033513" lon="30.0866848603"><ele>68.54</ele><time>2026-04-25T13:24:26Z</time></trkpt><trkpt lat="59.0776010044" lon="30.0864460599"><ele>68.55</ele><time>2026-04-25T13:24:43Z</time></trkpt><trkpt lat="59.0775866713" lon="30.0862661842"><ele>68.06</ele><time>2026-04-25T13:25:01Z</time></trkpt><trkpt lat="59.0775602683" lon="30.0860700477"><ele>67.83</ele><time>2026-04-25T13:25:19Z</time></trkpt><trkpt lat="59.0775661357" lon="30.0859568082"><ele>68.42</ele><time>2026-04-25T13:25:30Z</time></trkpt><trkpt lat="59.0775144193" lon="30.0857902598"><ele>67.82</ele><time>2026-04-25T13:25:54Z</time></trkpt><trkpt lat="59.0774598531" lon="30.0856447499"><ele>68.20</ele><time>2026-04-25T13:26:14Z</time></trkpt><trkpt lat="59.0774635412" lon="30.0856706500"><ele>68.11</ele><time>2026-04-25T13:26:41Z</time></trkpt><trkpt lat="59.0774753597" lon="30.0856653694"><ele>67.51</ele><time>2026-04-25T13:27:12Z</time></trkpt><trkpt lat="59.0775163472" lon="30.0856285729"><ele>67.64</ele><time>2026-04-25T13:27:40Z</time></trkpt><trkpt lat="59.0775144193" lon="30.0856692251"><ele>67.81</ele><time>2026-04-25T13:28:15Z</time></trkpt><trkpt lat="59.0773932170" lon="30.0856435765"><ele>67.46</ele><time>2026-04-25T13:28:37Z</time></trkpt><trkpt lat="59.0772777982" lon="30.0857254677"><ele>67.77</ele><time>2026-04-25T13:28:57Z</time></trkpt><trkpt lat="59.0771833342" lon="30.0857533794"><ele>67.78</ele><time>2026-04-25T13:29:19Z</time></trkpt><trkpt lat="59.0770938993" lon="30.0858888309"><ele>67.77</ele><time>2026-04-25T13:29:41Z</time></trkpt><trkpt lat="59.0770042129" lon="30.0859259628"><ele>67.59</ele><time>2026-04-25T13:29:59Z</time></trkpt><trkpt lat="59.0768980980" lon="30.0859846361"><ele>67.43</ele><time>2026-04-25T13:30:18Z</time></trkpt><trkpt lat="59.0767958388" lon="30.0859770924"><ele>67.67</ele><time>2026-04-25T13:30:38Z</time></trkpt><trkpt lat="59.0766392648" lon="30.0859920960"><ele>67.55</ele><time>2026-04-25T13:30:57Z</time></trkpt><trkpt lat="59.0765453037" lon="30.0859159883"><ele>67.37</ele><time>2026-04-25T13:31:14Z</time></trkpt><trkpt lat="59.0764779970" lon="30.0859860610"><ele>67.58</ele><time>2026-04-25T13:31:35Z</time></trkpt><trkpt lat="59.0764539409" lon="30.0859305728"><ele>67.47</ele><time>2026-04-25T13:32:06Z</time></trkpt><trkpt lat="59.0764173120" lon="30.0859343447"><ele>67.75</ele><time>2026-04-25T13:32:33Z</time></trkpt><trkpt lat="59.0762946010" lon="30.0859349314"><ele>67.30</ele><time>2026-04-25T13:32:52Z</time></trkpt><trkpt lat="59.0762348380" lon="30.0860518590"><ele>67.66</ele><time>2026-04-25T13:33:13Z</time></trkpt><trkpt lat="59.0761436429" lon="30.0861867238"><ele>67.50</ele><time>2026-04-25T13:33:34Z</time></trkpt><trkpt lat="59.0760490112" lon="30.0862823613"><ele>67.19</ele><time>2026-04-25T13:33:52Z</time></trkpt><trkpt lat="59.0759280603" lon="30.0863253605"><ele>67.95</ele><time>2026-04-25T13:34:13Z</time></trkpt><trkpt lat="59.0757631045" lon="30.0863593072"><ele>66.90</ele><time>2026-04-25T13:34:34Z</time></trkpt><trkpt lat="59.0756775253" lon="30.0863098539"><ele>67.96</ele><time>2026-04-25T13:34:52Z</time></trkpt><trkpt lat="59.0755813848" lon="30.0862402841"><ele>67.90</ele><time>2026-04-25T13:35:10Z</time></trkpt><trkpt lat="59.0755519643" lon="30.0862248614"><ele>67.53</ele><time>2026-04-25T13:35:35Z</time></trkpt><trkpt lat="59.0754756052" lon="30.0862311479"><ele>68.54</ele><time>2026-04-25T13:36:02Z</time></trkpt><trkpt lat="59.0753737651" lon="30.0863480754"><ele>68.20</ele><time>2026-04-25T13:36:22Z</time></trkpt><trkpt lat="59.0753139183" lon="30.0864644162"><ele>68.24</ele><time>2026-04-25T13:36:43Z</time></trkpt><trkpt lat="59.0752739366" lon="30.0864893943"><ele>64.59</ele><time>2026-04-25T13:36:52Z</time></trkpt><trkpt lat="59.0752692427" lon="30.0864924118"><ele>70.36</ele><time>2026-04-25T13:36:53Z</time></trkpt><trkpt lat="59.0752612799" lon="30.0864910707"><ele>67.34</ele><time>2026-04-25T13:36:54Z</time></trkpt><trkpt lat="59.0751449391" lon="30.0864288770"><ele>68.17</ele><time>2026-04-25T13:37:14Z</time></trkpt><trkpt lat="59.0750695020" lon="30.0863393582"><ele>67.67</ele><time>2026-04-25T13:37:34Z</time></trkpt><trkpt lat="59.0749995969" lon="30.0862771645"><ele>67.78</ele><time>2026-04-25T13:37:50Z</time></trkpt><trkpt lat="59.0749436896" lon="30.0863353349"><ele>67.66</ele><time>2026-04-25T13:38:14Z</time></trkpt><trkpt lat="59.0748985112" lon="30.0864935014"><ele>68.18</ele><time>2026-04-25T13:38:35Z</time></trkpt><trkpt lat="59.0748519916" lon="30.0866524223"><ele>67.90</ele><time>2026-04-25T13:38:56Z</time></trkpt><trkpt lat="59.0747803263" lon="30.0867328048"><ele>67.66</ele><time>2026-04-25T13:39:15Z</time></trkpt><trkpt lat="59.0747778956" lon="30.0868359022"><ele>68.34</ele><time>2026-04-25T13:39:43Z</time></trkpt><trkpt lat="59.0747814160" lon="30.0868558511"><ele>68.27</ele><time>2026-04-25T13:39:47Z</time></trkpt><trkpt lat="59.0746946633" lon="30.0867557712"><ele>67.88</ele><time>2026-04-25T13:40:08Z</time></trkpt><trkpt lat="59.0745991096" lon="30.0867364928"><ele>68.48</ele><time>2026-04-25T13:40:28Z</time></trkpt><trkpt lat="59.0745370835" lon="30.0867177173"><ele>68.54</ele><time>2026-04-25T13:40:49Z</time></trkpt><trkpt lat="59.0744578745" lon="30.0866551884"><ele>68.06</ele><time>2026-04-25T13:41:09Z</time></trkpt><trkpt lat="59.0743650869" lon="30.0866932422"><ele>68.32</ele><time>2026-04-25T13:41:30Z</time></trkpt><trkpt lat="59.0743437130" lon="30.0866921525"><ele>67.94</ele><time>2026-04-25T13:41:34Z</time></trkpt><trkpt lat="59.0742184035" lon="30.0867944956"><ele>68.18</ele><time>2026-04-25T13:41:56Z</time></trkpt><trkpt lat="59.0740809403" lon="30.0867791567"><ele>68.87</ele><time>2026-04-25T13:42:19Z</time></trkpt><trkpt lat="59.0739914216" lon="30.0867618900"><ele>68.67</ele><time>2026-04-25T13:42:40Z</time></trkpt><trkpt lat="59.0739277191" lon="30.0868528336"><ele>68.72</ele><time>2026-04-25T13:43:00Z</time></trkpt><trkpt lat="59.0738466661" lon="30.0868726149"><ele>68.55</ele><time>2026-04-25T13:43:22Z</time></trkpt><trkpt lat="59.0738266334" lon="30.0868630596"><ele>68.50</ele><time>2026-04-25T13:43:55Z</time></trkpt><trkpt lat="59.0737610869" lon="30.0868778117"><ele>69.38</ele><time>2026-04-25T13:44:20Z</time></trkpt><trkpt lat="59.0736719873" lon="30.0869048852"><ele>68.96</ele><time>2026-04-25T13:44:43Z</time></trkpt><trkpt lat="59.0735709853" lon="30.0869369879"><ele>69.28</ele><time>2026-04-25T13:45:00Z</time></trkpt><trkpt lat="59.0734636970" lon="30.0868514087"><ele>69.36</ele><time>2026-04-25T13:45:21Z</time></trkpt><trkpt lat="59.0733817220" lon="30.0867338106"><ele>69.26</ele><time>2026-04-25T13:45:41Z</time></trkpt><trkpt lat="59.0732898563" lon="30.0866003707"><ele>69.27</ele><time>2026-04-25T13:46:02Z</time></trkpt><trkpt lat="59.0732377209" lon="30.0866862852"><ele>69.44</ele><time>2026-04-25T13:46:22Z</time></trkpt><trkpt lat="59.0732326917" lon="30.0866778195"><ele>69.76</ele><time>2026-04-25T13:46:43Z</time></trkpt><trkpt lat="59.0731819812" lon="30.0867328048"><ele>69.38</ele><time>2026-04-25T13:47:04Z</time></trkpt><trkpt lat="59.0731294267" lon="30.0867635664"><ele>69.39</ele><time>2026-04-25T13:47:28Z</time></trkpt><trkpt lat="59.0731072146" lon="30.0868805777"><ele>69.79</ele><time>2026-04-25T13:47:52Z</time></trkpt><trkpt lat="59.0731079690" lon="30.0870136824"><ele>69.73</ele><time>2026-04-25T13:48:13Z</time></trkpt><trkpt lat="59.0730732679" lon="30.0871016923"><ele>69.40</ele><time>2026-04-25T13:48:36Z</time></trkpt><trkpt lat="59.0729844198" lon="30.0871944800"><ele>69.98</ele><time>2026-04-25T13:48:58Z</time></trkpt><trkpt lat="59.0729737747" lon="30.0872068014"><ele>70.37</ele><time>2026-04-25T13:49:00Z</time></trkpt><trkpt lat="59.0729072224" lon="30.0872394908"><ele>70.22</ele><time>2026-04-25T13:49:25Z</time></trkpt><trkpt lat="59.0729032829" lon="30.0872951467"><ele>70.45</ele><time>2026-04-25T13:49:59Z</time></trkpt><trkpt lat="59.0728969965" lon="30.0873600226"><ele>70.82</ele><time>2026-04-25T13:50:29Z</time></trkpt><trkpt lat="59.0728810709" lon="30.0873270817"><ele>71.03</ele><time>2026-04-25T13:50:42Z</time></trkpt><trkpt lat="59.0729028638" lon="30.0874742679"><ele>70.94</ele><time>2026-04-25T13:51:14Z</time></trkpt><trkpt lat="59.0728878602" lon="30.0873476174"><ele>71.25</ele><time>2026-04-25T13:51:44Z</time></trkpt><trkpt lat="59.0728723537" lon="30.0873987470"><ele>71.51</ele><time>2026-04-25T13:52:14Z</time></trkpt><trkpt lat="59.0728389937" lon="30.0873782113"><ele>71.62</ele><time>2026-04-25T13:52:40Z</time></trkpt><trkpt lat="59.0727744531" lon="30.0872890279"><ele>71.91</ele><time>2026-04-25T13:52:55Z</time></trkpt><trkpt lat="59.0726990160" lon="30.0872934703"><ele>71.99</ele><time>2026-04-25T13:53:12Z</time></trkpt><trkpt lat="59.0726058930" lon="30.0872079749"><ele>72.22</ele><time>2026-04-25T13:53:40Z</time></trkpt><trkpt lat="59.0725037176" lon="30.0871125050"><ele>72.36</ele><time>2026-04-25T13:54:00Z</time></trkpt><trkpt lat="59.0724407695" lon="30.0871988386"><ele>72.62</ele><time>2026-04-25T13:54:16Z</time></trkpt><trkpt lat="59.0723489039" lon="30.0872991700"><ele>72.07</ele><time>2026-04-25T13:54:33Z</time></trkpt><trkpt lat="59.0722188167" lon="30.0873064622"><ele>72.33</ele><time>2026-04-25T13:54:52Z</time></trkpt><trkpt lat="59.0721295495" lon="30.0874354597"><ele>73.09</ele><time>2026-04-25T13:55:13Z</time></trkpt><trkpt lat="59.0720790904" lon="30.0874858350"><ele>73.10</ele><time>2026-04-25T13:55:37Z</time></trkpt><trkpt lat="59.0720492508" lon="30.0874761958"><ele>73.08</ele><time>2026-04-25T13:55:42Z</time></trkpt><trkpt lat="59.0720364265" lon="30.0874830689"><ele>73.44</ele><time>2026-04-25T13:56:10Z</time></trkpt><trkpt lat="59.0720418748" lon="30.0874570850"><ele>73.24</ele><time>2026-04-25T13:56:42Z</time></trkpt><trkpt lat="59.0720325708" lon="30.0875647925"><ele>73.70</ele><time>2026-04-25T13:57:10Z</time></trkpt><trkpt lat="59.0719847940" lon="30.0877941214"><ele>73.03</ele><time>2026-04-25T13:57:29Z</time></trkpt><trkpt lat="59.0720091015" lon="30.0879574008"><ele>73.49</ele><time>2026-04-25T13:57:47Z</time></trkpt><trkpt lat="59.0720410366" lon="30.0881389529"><ele>73.04</ele><time>2026-04-25T13:58:07Z</time></trkpt><trkpt lat="59.0720758215" lon="30.0881783478"><ele>73.10</ele><time>2026-04-25T13:58:38Z</time></trkpt><trkpt lat="59.0720642544" lon="30.0881990511"><ele>73.70</ele><time>2026-04-25T13:59:09Z</time></trkpt><trkpt lat="59.0720376838" lon="30.0880177505"><ele>73.68</ele><time>2026-04-25T13:59:29Z</time></trkpt><trkpt lat="59.0720500052" lon="30.0878041796"><ele>73.08</ele><time>2026-04-25T13:59:47Z</time></trkpt><trkpt lat="59.0719555411" lon="30.0877948757"><ele>73.45</ele><time>2026-04-25T14:00:09Z</time></trkpt><trkpt lat="59.0718210116" lon="30.0877513736"><ele>73.33</ele><time>2026-04-25T14:00:27Z</time></trkpt><trkpt lat="59.0717687923" lon="30.0876064505"><ele>73.65</ele><time>2026-04-25T14:00:43Z</time></trkpt><trkpt lat="59.0717153996" lon="30.0874721725"><ele>73.59</ele><time>2026-04-25T14:00:59Z</time></trkpt><trkpt lat="59.0716413036" lon="30.0874265749"><ele>74.27</ele><time>2026-04-25T14:01:17Z</time></trkpt><trkpt lat="59.0716257133" lon="30.0874181930"><ele>74.09</ele><time>2026-04-25T14:01:19Z</time></trkpt><trkpt lat="59.0715435706" lon="30.0874634553"><ele>73.58</ele><time>2026-04-25T14:01:33Z</time></trkpt><trkpt lat="59.0714270622" lon="30.0875204522"><ele>73.67</ele><time>2026-04-25T14:01:52Z</time></trkpt><trkpt lat="59.0713431593" lon="30.0875720847"><ele>73.61</ele><time>2026-04-25T14:02:12Z</time></trkpt><trkpt lat="59.0712561551" lon="30.0876401458"><ele>73.48</ele><time>2026-04-25T14:02:31Z</time></trkpt><trkpt lat="59.0711824782" lon="30.0876269024"><ele>73.60</ele><time>2026-04-25T14:02:58Z</time></trkpt><trkpt lat="59.0713035967" lon="30.0876129046"><ele>73.50</ele><time>2026-04-25T14:03:17Z</time></trkpt><trkpt lat="59.0712699853" lon="30.0875448436"><ele>73.41</ele><time>2026-04-25T14:03:39Z</time></trkpt><trkpt lat="59.0712656267" lon="30.0875672232"><ele>74.11</ele><time>2026-04-25T14:04:05Z</time></trkpt><trkpt lat="59.0712673031" lon="30.0876427442"><ele>74.88</ele><time>2026-04-25T14:04:24Z</time></trkpt><trkpt lat="59.0712009184" lon="30.0876424089"><ele>73.85</ele><time>2026-04-25T14:04:49Z</time></trkpt><trkpt lat="59.0710896906" lon="30.0875919499"><ele>73.97</ele><time>2026-04-25T14:05:08Z</time></trkpt><trkpt lat="59.0710374713" lon="30.0877968874"><ele>73.72</ele><time>2026-04-25T14:05:29Z</time></trkpt><trkpt lat="59.0709877666" lon="30.0878242124"><ele>74.34</ele><time>2026-04-25T14:05:48Z</time></trkpt><trkpt lat="59.0708983317" lon="30.0878474303"><ele>74.33</ele><time>2026-04-25T14:06:08Z</time></trkpt><trkpt lat="59.0708961524" lon="30.0878433231"><ele>74.47</ele><time>2026-04-25T14:06:09Z</time></trkpt><trkpt lat="59.0707614552" lon="30.0878619310"><ele>74.36</ele><time>2026-04-25T14:06:26Z</time></trkpt><trkpt lat="59.0706716012" lon="30.0878074486"><ele>74.98</ele><time>2026-04-25T14:06:48Z</time></trkpt><trkpt lat="59.0705881175" lon="30.0878195185"><ele>74.94</ele><time>2026-04-25T14:07:10Z</time></trkpt><trkpt lat="59.0704891272" lon="30.0877972227"><ele>74.21</ele><time>2026-04-25T14:07:31Z</time></trkpt><trkpt lat="59.0703944955" lon="30.0877779443"><ele>74.72</ele><time>2026-04-25T14:07:56Z</time></trkpt><trkpt lat="59.0703320503" lon="30.0876799598"><ele>74.73</ele><time>2026-04-25T14:08:15Z</time></trkpt><trkpt lat="59.0703249257" lon="30.0876983162"><ele>74.99</ele><time>2026-04-25T14:08:45Z</time></trkpt><trkpt lat="59.0702432021" lon="30.0876787025"><ele>74.90</ele><time>2026-04-25T14:09:05Z</time></trkpt><trkpt lat="59.0701696090" lon="30.0876008347"><ele>75.37</ele><time>2026-04-25T14:09:24Z</time></trkpt><trkpt lat="59.0701506659" lon="30.0875150040"><ele>75.05</ele><time>2026-04-25T14:09:52Z</time></trkpt><trkpt lat="59.0701276995" lon="30.0873714220"><ele>75.11</ele><time>2026-04-25T14:10:10Z</time></trkpt><trkpt lat="59.0700369235" lon="30.0872416701"><ele>75.10</ele><time>2026-04-25T14:10:39Z</time></trkpt><trkpt lat="59.0699933376" lon="30.0872126687"><ele>75.68</ele><time>2026-04-25T14:10:50Z</time></trkpt><trkpt lat="59.0699377656" lon="30.0871853437"><ele>75.52</ele><time>2026-04-25T14:11:19Z</time></trkpt><trkpt lat="59.0699205827" lon="30.0871562585"><ele>75.57</ele><time>2026-04-25T14:11:29Z</time></trkpt><trkpt lat="59.0698127076" lon="30.0870930590"><ele>75.44</ele><time>2026-04-25T14:11:52Z</time></trkpt><trkpt lat="59.0697894897" lon="30.0870762113"><ele>75.93</ele><time>2026-04-25T14:12:16Z</time></trkpt><trkpt lat="59.0697917528" lon="30.0870580226"><ele>75.78</ele><time>2026-04-25T14:12:39Z</time></trkpt><trkpt lat="59.0698025655" lon="30.0870819110"><ele>75.53</ele><time>2026-04-25T14:13:11Z</time></trkpt><trkpt lat="59.0697999671" lon="30.0870650634"><ele>75.53</ele><time>2026-04-25T14:13:37Z</time></trkpt><trkpt lat="59.0697106160" lon="30.0869922247"><ele>74.98</ele><time>2026-04-25T14:13:55Z</time></trkpt><trkpt lat="59.0696191695" lon="30.0869881175"><ele>75.65</ele><time>2026-04-25T14:14:16Z</time></trkpt><trkpt lat="59.0695340931" lon="30.0869239960"><ele>75.65</ele><time>2026-04-25T14:14:34Z</time></trkpt><trkpt lat="59.0694952849" lon="30.0870066416"><ele>75.72</ele><time>2026-04-25T14:14:53Z</time></trkpt><trkpt lat="59.0693894215" lon="30.0871150196"><ele>75.80</ele><time>2026-04-25T14:15:13Z</time></trkpt><trkpt lat="59.0693326760" lon="30.0872945599"><ele>75.65</ele><time>2026-04-25T14:15:33Z</time></trkpt><trkpt lat="59.0692546405" lon="30.0873499643"><ele>75.49</ele><time>2026-04-25T14:15:50Z</time></trkpt><trkpt lat="59.0691284090" lon="30.0873803068"><ele>75.58</ele><time>2026-04-25T14:16:09Z</time></trkpt><trkpt lat="59.0690686461" lon="30.0874544866"><ele>76.02</ele><time>2026-04-25T14:16:36Z</time></trkpt><trkpt lat="59.0690637846" lon="30.0874412432"><ele>75.83</ele><time>2026-04-25T14:17:06Z</time></trkpt><trkpt lat="59.0689606871" lon="30.0872470345"><ele>75.57</ele><time>2026-04-25T14:17:28Z</time></trkpt><trkpt lat="59.0688672289" lon="30.0871688314"><ele>75.72</ele><time>2026-04-25T14:17:47Z</time></trkpt><trkpt lat="59.0687510557" lon="30.0871167798"><ele>75.36</ele><time>2026-04-25T14:18:06Z</time></trkpt><trkpt lat="59.0686254948" lon="30.0870304462"><ele>74.84</ele><time>2026-04-25T14:18:24Z</time></trkpt><trkpt lat="59.0684805717" lon="30.0869804062"><ele>75.23</ele><time>2026-04-25T14:18:46Z</time></trkpt><trkpt lat="59.0684620477" lon="30.0870055519"><ele>75.33</ele><time>2026-04-25T14:19:13Z</time></trkpt><trkpt lat="59.0684496425" lon="30.0869068131"><ele>75.45</ele><time>2026-04-25T14:19:38Z</time></trkpt><trkpt lat="59.0684464574" lon="30.0868930668"><ele>75.82</ele><time>2026-04-25T14:19:39Z</time></trkpt><trkpt lat="59.0684203058" lon="30.0866165478"><ele>75.53</ele><time>2026-04-25T14:19:57Z</time></trkpt><trkpt lat="59.0683832578" lon="30.0863520987"><ele>75.16</ele><time>2026-04-25T14:20:14Z</time></trkpt><trkpt lat="59.0683674160" lon="30.0861087721"><ele>75.59</ele><time>2026-04-25T14:20:35Z</time></trkpt><trkpt lat="59.0683331341" lon="30.0859251246"><ele>75.64</ele><time>2026-04-25T14:20:53Z</time></trkpt><trkpt lat="59.0682947449" lon="30.0857170019"><ele>75.56</ele><time>2026-04-25T14:21:09Z</time></trkpt><trkpt lat="59.0682859439" lon="30.0855077058"><ele>75.66</ele><time>2026-04-25T14:21:29Z</time></trkpt><trkpt lat="59.0682848543" lon="30.0852421671"><ele>75.41</ele><time>2026-04-25T14:21:48Z</time></trkpt><trkpt lat="59.0682886261" lon="30.0849766284"><ele>76.13</ele><time>2026-04-25T14:22:05Z</time></trkpt><trkpt lat="59.0682716947" lon="30.0847794861"><ele>75.95</ele><time>2026-04-25T14:22:18Z</time></trkpt><trkpt lat="59.0682493150" lon="30.0846504048"><ele>76.05</ele><time>2026-04-25T14:22:25Z</time></trkpt><trkpt lat="59.0682251751" lon="30.0842747279"><ele>75.80</ele><time>2026-04-25T14:22:44Z</time></trkpt><trkpt lat="59.0682229120" lon="30.0842228439"><ele>75.81</ele><time>2026-04-25T14:22:48Z</time></trkpt><trkpt lat="59.0682145301" lon="30.0841405336"><ele>75.92</ele><time>2026-04-25T14:22:53Z</time></trkpt><trkpt lat="59.0681937430" lon="30.0839724764"><ele>75.79</ele><time>2026-04-25T14:23:04Z</time></trkpt><trkpt lat="59.0681670047" lon="30.0837274734"><ele>76.02</ele><time>2026-04-25T14:23:19Z</time></trkpt><trkpt lat="59.0681680106" lon="30.0836893357"><ele>76.08</ele><time>2026-04-25T14:23:21Z</time></trkpt><trkpt lat="59.0681534261" lon="30.0834105536"><ele>75.88</ele><time>2026-04-25T14:23:33Z</time></trkpt><trkpt lat="59.0681595448" lon="30.0831286702"><ele>76.59</ele><time>2026-04-25T14:23:46Z</time></trkpt><trkpt lat="59.0681302082" lon="30.0828320347"><ele>76.91</ele><time>2026-04-25T14:24:00Z</time></trkpt><trkpt lat="59.0681115165" lon="30.0825473852"><ele>76.68</ele><time>2026-04-25T14:24:12Z</time></trkpt><trkpt lat="59.0680801682" lon="30.0823912304"><ele>76.92</ele><time>2026-04-25T14:24:20Z</time></trkpt><trkpt lat="59.0680608060" lon="30.0823321380"><ele>76.69</ele><time>2026-04-25T14:24:23Z</time></trkpt><trkpt lat="59.0680334810" lon="30.0820185710"><ele>76.97</ele><time>2026-04-25T14:24:38Z</time></trkpt><trkpt lat="59.0680162143" lon="30.0818719715"><ele>77.01</ele><time>2026-04-25T14:24:45Z</time></trkpt><trkpt lat="59.0679762326" lon="30.0815323368"><ele>77.09</ele><time>2026-04-25T14:25:00Z</time></trkpt><trkpt lat="59.0679501649" lon="30.0812449213"><ele>77.25</ele><time>2026-04-25T14:25:12Z</time></trkpt><trkpt lat="59.0679226723" lon="30.0810537301"><ele>76.99</ele><time>2026-04-25T14:25:21Z</time></trkpt><trkpt lat="59.0679126978" lon="30.0809869263"><ele>76.94</ele><time>2026-04-25T14:25:24Z</time></trkpt><trkpt lat="59.0679106861" lon="30.0808147620"><ele>76.67</ele><time>2026-04-25T14:25:31Z</time></trkpt><trkpt lat="59.0679085907" lon="30.0807145983"><ele>76.71</ele><time>2026-04-25T14:25:35Z</time></trkpt><trkpt lat="59.0678789187" lon="30.0804167055"><ele>76.59</ele><time>2026-04-25T14:25:48Z</time></trkpt><trkpt lat="59.0678676032" lon="30.0802344829"><ele>76.89</ele><time>2026-04-25T14:25:56Z</time></trkpt><trkpt lat="59.0678564552" lon="30.0800424535"><ele>76.92</ele><time>2026-04-25T14:26:03Z</time></trkpt><trkpt lat="59.0678610653" lon="30.0799976941"><ele>76.68</ele><time>2026-04-25T14:26:05Z</time></trkpt><trkpt lat="59.0678456426" lon="30.0798454788"><ele>76.60</ele><time>2026-04-25T14:26:13Z</time></trkpt><trkpt lat="59.0678220056" lon="30.0796945207"><ele>77.16</ele><time>2026-04-25T14:26:20Z</time></trkpt><trkpt lat="59.0677975304" lon="30.0793382898"><ele>76.48</ele><time>2026-04-25T14:26:37Z</time></trkpt><trkpt lat="59.0677003004" lon="30.0788527261"><ele>77.51</ele><time>2026-04-25T14:27:00Z</time></trkpt><trkpt lat="59.0676904935" lon="30.0786918774"><ele>77.19</ele><time>2026-04-25T14:27:07Z</time></trkpt><trkpt lat="59.0676722210" lon="30.0783560984"><ele>77.39</ele><time>2026-04-25T14:27:20Z</time></trkpt><trkpt lat="59.0676320717" lon="30.0778648350"><ele>77.60</ele><time>2026-04-25T14:27:38Z</time></trkpt><trkpt lat="59.0675895754" lon="30.0774905831"><ele>77.54</ele><time>2026-04-25T14:27:52Z</time></trkpt><trkpt lat="59.0675496776" lon="30.0770880003"><ele>77.55</ele><time>2026-04-25T14:28:07Z</time></trkpt><trkpt lat="59.0674866457" lon="30.0765402429"><ele>77.37</ele><time>2026-04-25T14:28:28Z</time></trkpt><trkpt lat="59.0674506873" lon="30.0761063118"><ele>77.43</ele><time>2026-04-25T14:28:45Z</time></trkpt><trkpt lat="59.0674201772" lon="30.0756407809"><ele>77.98</ele><time>2026-04-25T14:29:02Z</time></trkpt><trkpt lat="59.0673758369" lon="30.0751664490"><ele>77.73</ele><time>2026-04-25T14:29:20Z</time></trkpt><trkpt lat="59.0673294850" lon="30.0746404007"><ele>78.00</ele><time>2026-04-25T14:29:41Z</time></trkpt><trkpt lat="59.0672864858" lon="30.0739939883"><ele>77.73</ele><time>2026-04-25T14:30:06Z</time></trkpt><trkpt lat="59.0672487672" lon="30.0737431180"><ele>77.54</ele><time>2026-04-25T14:30:17Z</time></trkpt><trkpt lat="59.0673213545" lon="30.0736606400"><ele>77.91</ele><time>2026-04-25T14:30:32Z</time></trkpt><trkpt lat="59.0673458297" lon="30.0736013800"><ele>77.84</ele><time>2026-04-25T14:31:06Z</time></trkpt><trkpt lat="59.0672884975" lon="30.0736516714"><ele>77.78</ele><time>2026-04-25T14:31:28Z</time></trkpt><trkpt lat="59.0672734100" lon="30.0736908987"><ele>77.31</ele><time>2026-04-25T14:31:39Z</time></trkpt><trkpt lat="59.0672480967" lon="30.0738374144"><ele>78.45</ele><time>2026-04-25T14:34:24Z</time></trkpt></trkseg></trk></gpx>